﻿<?xml version="1.0" encoding="utf-8"?><gpx creator="Garmin Desktop App" version="1.1" xsi:schemaLocation="http://www.topografix.com/GPX/1/1 http://www.topografix.com/GPX/1/1/gpx.xsd http://www.garmin.com/xmlschemas/WaypointExtension/v1 http://www8.garmin.com/xmlschemas/WaypointExtensionv1.xsd http://www.garmin.com/xmlschemas/TrackPointExtension/v1 http://www.garmin.com/xmlschemas/TrackPointExtensionv1.xsd http://www.garmin.com/xmlschemas/GpxExtensions/v3 http://www8.garmin.com/xmlschemas/GpxExtensionsv3.xsd http://www.garmin.com/xmlschemas/ActivityExtension/v1 http://www8.garmin.com/xmlschemas/ActivityExtensionv1.xsd http://www.garmin.com/xmlschemas/AdventuresExtensions/v1 http://www8.garmin.com/xmlschemas/AdventuresExtensionv1.xsd http://www.garmin.com/xmlschemas/PressureExtension/v1 http://www.garmin.com/xmlschemas/PressureExtensionv1.xsd http://www.garmin.com/xmlschemas/TripExtensions/v1 http://www.garmin.com/xmlschemas/TripExtensionsv1.xsd http://www.garmin.com/xmlschemas/TripMetaDataExtensions/v1 http://www.garmin.com/xmlschemas/TripMetaDataExtensionsv1.xsd http://www.garmin.com/xmlschemas/ViaPointTransportationModeExtensions/v1 http://www.garmin.com/xmlschemas/ViaPointTransportationModeExtensionsv1.xsd http://www.garmin.com/xmlschemas/CreationTimeExtension/v1 http://www.garmin.com/xmlschemas/CreationTimeExtensionsv1.xsd http://www.garmin.com/xmlschemas/AccelerationExtension/v1 http://www.garmin.com/xmlschemas/AccelerationExtensionv1.xsd http://www.garmin.com/xmlschemas/PowerExtension/v1 http://www.garmin.com/xmlschemas/PowerExtensionv1.xsd http://www.garmin.com/xmlschemas/VideoExtension/v1 http://www.garmin.com/xmlschemas/VideoExtensionv1.xsd" xmlns="http://www.topografix.com/GPX/1/1" xmlns:xsi="http://www.w3.org/2001/XMLSchema-instance" xmlns:wptx1="http://www.garmin.com/xmlschemas/WaypointExtension/v1" xmlns:gpxtrx="http://www.garmin.com/xmlschemas/GpxExtensions/v3" xmlns:gpxtpx="http://www.garmin.com/xmlschemas/TrackPointExtension/v1" xmlns:gpxx="http://www.garmin.com/xmlschemas/GpxExtensions/v3" xmlns:trp="http://www.garmin.com/xmlschemas/TripExtensions/v1" xmlns:adv="http://www.garmin.com/xmlschemas/AdventuresExtensions/v1" xmlns:prs="http://www.garmin.com/xmlschemas/PressureExtension/v1" xmlns:tmd="http://www.garmin.com/xmlschemas/TripMetaDataExtensions/v1" xmlns:vptm="http://www.garmin.com/xmlschemas/ViaPointTransportationModeExtensions/v1" xmlns:ctx="http://www.garmin.com/xmlschemas/CreationTimeExtension/v1" xmlns:gpxacc="http://www.garmin.com/xmlschemas/AccelerationExtension/v1" xmlns:gpxpx="http://www.garmin.com/xmlschemas/PowerExtension/v1" xmlns:vidx1="http://www.garmin.com/xmlschemas/VideoExtension/v1">

  <metadata>
    <link href="http://www.garmin.com">
      <text>Garmin International</text>
    </link>
    <time>2025-07-06T19:02:29Z</time>
    <bounds maxlat="46.317911529913545" maxlon="8.260993044823408" minlat="46.309608584269881" minlon="8.219434227794409" />
  </metadata>

  <trk>
    <name>bivacco-combi-e-lanza06LUG2025</name>
    <extensions>
      <gpxx:TrackExtension>
        <gpxx:DisplayColor>Red</gpxx:DisplayColor>
      </gpxx:TrackExtension>
    </extensions>
    <trkseg>
      <trkpt lat="46.313256220892072" lon="8.260423578321934">
        <ele>1663.6400000000001</ele>
        <time>2025-07-06T06:30:27Z</time>
      </trkpt>
      <trkpt lat="46.313221352174878" lon="8.260277565568686">
        <ele>1663.3199999999999</ele>
        <time>2025-07-06T06:31:00Z</time>
      </trkpt>
      <trkpt lat="46.313183382153511" lon="8.260138425976038">
        <ele>1663.4000000000001</ele>
        <time>2025-07-06T06:31:08Z</time>
      </trkpt>
      <trkpt lat="46.313155889511108" lon="8.260099366307259">
        <ele>1663.6900000000001</ele>
        <time>2025-07-06T06:32:08Z</time>
      </trkpt>
      <trkpt lat="46.31318086758256" lon="8.260247306898236">
        <ele>1663.95</ele>
        <time>2025-07-06T06:32:16Z</time>
      </trkpt>
      <trkpt lat="46.313229231163859" lon="8.260381165891886">
        <ele>1664.9300000000001</ele>
        <time>2025-07-06T06:32:26Z</time>
      </trkpt>
      <trkpt lat="46.313204253092408" lon="8.260300448164344">
        <ele>1663.46</ele>
        <time>2025-07-06T06:33:14Z</time>
      </trkpt>
      <trkpt lat="46.313172988593578" lon="8.26016440987587">
        <ele>1663.6099999999999</ele>
        <time>2025-07-06T06:33:26Z</time>
      </trkpt>
      <trkpt lat="46.313240127637982" lon="8.260071370750666">
        <ele>1663.05</ele>
        <time>2025-07-06T06:33:38Z</time>
      </trkpt>
      <trkpt lat="46.313338112086058" lon="8.260111771523953">
        <ele>1661.27</ele>
        <time>2025-07-06T06:33:49Z</time>
      </trkpt>
      <trkpt lat="46.313414638862014" lon="8.260215371847153">
        <ele>1659.3599999999999</ele>
        <time>2025-07-06T06:34:00Z</time>
      </trkpt>
      <trkpt lat="46.313460990786552" lon="8.260346464812756">
        <ele>1657.95</ele>
        <time>2025-07-06T06:34:09Z</time>
      </trkpt>
      <trkpt lat="46.313458476215601" lon="8.260484766215086">
        <ele>1656.49</ele>
        <time>2025-07-06T06:34:17Z</time>
      </trkpt>
      <trkpt lat="46.313486220315099" lon="8.260605130344629">
        <ele>1654.98</ele>
        <time>2025-07-06T06:34:25Z</time>
      </trkpt>
      <trkpt lat="46.313581857830286" lon="8.260603370144963">
        <ele>1655.4000000000001</ele>
        <time>2025-07-06T06:34:34Z</time>
      </trkpt>
      <trkpt lat="46.313673472031951" lon="8.260581996291876">
        <ele>1656.6500000000001</ele>
        <time>2025-07-06T06:34:43Z</time>
      </trkpt>
      <trkpt lat="46.313766175881028" lon="8.260554419830442">
        <ele>1657.2</ele>
        <time>2025-07-06T06:34:51Z</time>
      </trkpt>
      <trkpt lat="46.313856951892376" lon="8.260542433708906">
        <ele>1657.5699999999999</ele>
        <time>2025-07-06T06:34:59Z</time>
      </trkpt>
      <trkpt lat="46.313953595235944" lon="8.260545283555985">
        <ele>1657.55</ele>
        <time>2025-07-06T06:35:07Z</time>
      </trkpt>
      <trkpt lat="46.314048562198877" lon="8.26055240817368">
        <ele>1657.54</ele>
        <time>2025-07-06T06:35:15Z</time>
      </trkpt>
      <trkpt lat="46.314143361523747" lon="8.26058853417635">
        <ele>1657.74</ele>
        <time>2025-07-06T06:35:23Z</time>
      </trkpt>
      <trkpt lat="46.314234221354127" lon="8.260630695149303">
        <ele>1658.1900000000001</ele>
        <time>2025-07-06T06:35:31Z</time>
      </trkpt>
      <trkpt lat="46.31431108340621" lon="8.260700264945626">
        <ele>1658.71</ele>
        <time>2025-07-06T06:35:39Z</time>
      </trkpt>
      <trkpt lat="46.314375456422567" lon="8.260810235515237">
        <ele>1659.9300000000001</ele>
        <time>2025-07-06T06:35:49Z</time>
      </trkpt>
      <trkpt lat="46.314423820003867" lon="8.260910231620073">
        <ele>1661.1400000000001</ele>
        <time>2025-07-06T06:35:58Z</time>
      </trkpt>
      <trkpt lat="46.314491797238588" lon="8.260993044823408">
        <ele>1662.3499999999999</ele>
        <time>2025-07-06T06:36:06Z</time>
      </trkpt>
      <trkpt lat="46.314578130841255" lon="8.260957337915897">
        <ele>1663.52</ele>
        <time>2025-07-06T06:36:16Z</time>
      </trkpt>
      <trkpt lat="46.314652394503355" lon="8.260885672643781">
        <ele>1664.3599999999999</ele>
        <time>2025-07-06T06:36:25Z</time>
      </trkpt>
      <trkpt lat="46.314748618751764" lon="8.260877206921578">
        <ele>1664.4200000000001</ele>
        <time>2025-07-06T06:36:33Z</time>
      </trkpt>
      <trkpt lat="46.314836544916034" lon="8.260877290740609">
        <ele>1664.73</ele>
        <time>2025-07-06T06:36:41Z</time>
      </trkpt>
      <trkpt lat="46.314934277907014" lon="8.260893886908889">
        <ele>1665.52</ele>
        <time>2025-07-06T06:36:50Z</time>
      </trkpt>
      <trkpt lat="46.315024634823203" lon="8.260900508612394">
        <ele>1666.75</ele>
        <time>2025-07-06T06:36:59Z</time>
      </trkpt>
      <trkpt lat="46.315114153549075" lon="8.260873602703214">
        <ele>1667.4400000000001</ele>
        <time>2025-07-06T06:37:08Z</time>
      </trkpt>
      <trkpt lat="46.315186824649572" lon="8.260795567184687">
        <ele>1667.5999999999999</ele>
        <time>2025-07-06T06:37:17Z</time>
      </trkpt>
      <trkpt lat="46.315191267058253" lon="8.260644190013409">
        <ele>1668.25</ele>
        <time>2025-07-06T06:37:25Z</time>
      </trkpt>
      <trkpt lat="46.315189003944397" lon="8.260473534464836">
        <ele>1667.9400000000001</ele>
        <time>2025-07-06T06:37:34Z</time>
      </trkpt>
      <trkpt lat="46.315182466059923" lon="8.260346464812756">
        <ele>1667.8099999999999</ele>
        <time>2025-07-06T06:37:42Z</time>
      </trkpt>
      <trkpt lat="46.315168719738722" lon="8.260211767628789">
        <ele>1667.97</ele>
        <time>2025-07-06T06:37:50Z</time>
      </trkpt>
      <trkpt lat="46.315149441361427" lon="8.260096265003085">
        <ele>1668.1700000000001</ele>
        <time>2025-07-06T06:37:58Z</time>
      </trkpt>
      <trkpt lat="46.31511926651001" lon="8.25998361222446">
        <ele>1668.3399999999999</ele>
        <time>2025-07-06T06:38:06Z</time>
      </trkpt>
      <trkpt lat="46.31508163176477" lon="8.259871546179056">
        <ele>1668.6199999999999</ele>
        <time>2025-07-06T06:38:14Z</time>
      </trkpt>
      <trkpt lat="46.315052714198828" lon="8.259739950299263">
        <ele>1668.5899999999999</ele>
        <time>2025-07-06T06:38:22Z</time>
      </trkpt>
      <trkpt lat="46.315052546560764" lon="8.259585471823812">
        <ele>1668.03</ele>
        <time>2025-07-06T06:38:30Z</time>
      </trkpt>
      <trkpt lat="46.315069310367107" lon="8.259442308917642">
        <ele>1667.99</ele>
        <time>2025-07-06T06:38:38Z</time>
      </trkpt>
      <trkpt lat="46.315085822716355" lon="8.259300487115979">
        <ele>1668</ele>
        <time>2025-07-06T06:38:46Z</time>
      </trkpt>
      <trkpt lat="46.31510023958981" lon="8.259157743304968">
        <ele>1668.03</ele>
        <time>2025-07-06T06:38:54Z</time>
      </trkpt>
      <trkpt lat="46.315111387521029" lon="8.259011814370751">
        <ele>1668.3599999999999</ele>
        <time>2025-07-06T06:39:02Z</time>
      </trkpt>
      <trkpt lat="46.315103089436889" lon="8.258874099701643">
        <ele>1668.5799999999999</ele>
        <time>2025-07-06T06:39:10Z</time>
      </trkpt>
      <trkpt lat="46.315078111365438" lon="8.258743844926357">
        <ele>1668.9200000000001</ele>
        <time>2025-07-06T06:39:18Z</time>
      </trkpt>
      <trkpt lat="46.315035363659263" lon="8.258614260703325">
        <ele>1669.1099999999999</ele>
        <time>2025-07-06T06:39:26Z</time>
      </trkpt>
      <trkpt lat="46.315005691722035" lon="8.2584825810045">
        <ele>1669.28</ele>
        <time>2025-07-06T06:39:34Z</time>
      </trkpt>
      <trkpt lat="46.315048523247242" lon="8.25837604701519">
        <ele>1670.5699999999999</ele>
        <time>2025-07-06T06:39:43Z</time>
      </trkpt>
      <trkpt lat="46.315131923183799" lon="8.258324582129717">
        <ele>1670.4300000000001</ele>
        <time>2025-07-06T06:39:51Z</time>
      </trkpt>
      <trkpt lat="46.315211299806833" lon="8.258255431428552">
        <ele>1669.77</ele>
        <time>2025-07-06T06:39:59Z</time>
      </trkpt>
      <trkpt lat="46.31527709774673" lon="8.25814051553607">
        <ele>1669.05</ele>
        <time>2025-07-06T06:40:07Z</time>
      </trkpt>
      <trkpt lat="46.315327137708664" lon="8.258023168891668">
        <ele>1669.1800000000001</ele>
        <time>2025-07-06T06:40:15Z</time>
      </trkpt>
      <trkpt lat="46.315365694463253" lon="8.257896434515715">
        <ele>1669.3099999999999</ele>
        <time>2025-07-06T06:40:23Z</time>
      </trkpt>
      <trkpt lat="46.315393019467592" lon="8.257763413712382">
        <ele>1669.3599999999999</ele>
        <time>2025-07-06T06:40:31Z</time>
      </trkpt>
      <trkpt lat="46.315407603979111" lon="8.257625112310052">
        <ele>1669.72</ele>
        <time>2025-07-06T06:40:39Z</time>
      </trkpt>
      <trkpt lat="46.315412297844887" lon="8.257488487288356">
        <ele>1669.6500000000001</ele>
        <time>2025-07-06T06:40:47Z</time>
      </trkpt>
      <trkpt lat="46.315408777445555" lon="8.257352700456977">
        <ele>1669.6099999999999</ele>
        <time>2025-07-06T06:40:55Z</time>
      </trkpt>
      <trkpt lat="46.315400646999478" lon="8.257220517843962">
        <ele>1669.8</ele>
        <time>2025-07-06T06:41:03Z</time>
      </trkpt>
      <trkpt lat="46.315391846001148" lon="8.25709437020123">
        <ele>1669.95</ele>
        <time>2025-07-06T06:41:11Z</time>
      </trkpt>
      <trkpt lat="46.315370555967093" lon="8.256960930302739">
        <ele>1670.1400000000001</ele>
        <time>2025-07-06T06:41:19Z</time>
      </trkpt>
      <trkpt lat="46.315335184335709" lon="8.256835117936134">
        <ele>1670.3399999999999</ele>
        <time>2025-07-06T06:41:27Z</time>
      </trkpt>
      <trkpt lat="46.315302159637213" lon="8.256708635017276">
        <ele>1670.49</ele>
        <time>2025-07-06T06:41:35Z</time>
      </trkpt>
      <trkpt lat="46.315269554033875" lon="8.25658030807972">
        <ele>1670.6700000000001</ele>
        <time>2025-07-06T06:41:43Z</time>
      </trkpt>
      <trkpt lat="46.315250946208835" lon="8.256447371095419">
        <ele>1670.8800000000001</ele>
        <time>2025-07-06T06:41:51Z</time>
      </trkpt>
      <trkpt lat="46.315242312848568" lon="8.256312673911452">
        <ele>1670.99</ele>
        <time>2025-07-06T06:41:59Z</time>
      </trkpt>
      <trkpt lat="46.315239882096648" lon="8.25617915019393">
        <ele>1671.1300000000001</ele>
        <time>2025-07-06T06:42:07Z</time>
      </trkpt>
      <trkpt lat="46.315245162695646" lon="8.25604721903801">
        <ele>1671.5</ele>
        <time>2025-07-06T06:42:15Z</time>
      </trkpt>
      <trkpt lat="46.315263099968433" lon="8.255904223769903">
        <ele>1671.99</ele>
        <time>2025-07-06T06:42:24Z</time>
      </trkpt>
      <trkpt lat="46.315284138545394" lon="8.255766592919827">
        <ele>1672.3599999999999</ele>
        <time>2025-07-06T06:42:33Z</time>
      </trkpt>
      <trkpt lat="46.315297968685627" lon="8.255620244890451">
        <ele>1672.5699999999999</ele>
        <time>2025-07-06T06:42:42Z</time>
      </trkpt>
      <trkpt lat="46.315300650894642" lon="8.25548336841166">
        <ele>1672.9000000000001</ele>
        <time>2025-07-06T06:42:50Z</time>
      </trkpt>
      <trkpt lat="46.315294448286295" lon="8.255338696762919">
        <ele>1672.9300000000001</ele>
        <time>2025-07-06T06:42:59Z</time>
      </trkpt>
      <trkpt lat="46.315279025584459" lon="8.255195785313845">
        <ele>1673.04</ele>
        <time>2025-07-06T06:43:08Z</time>
      </trkpt>
      <trkpt lat="46.315262764692307" lon="8.255053460597992">
        <ele>1673.21</ele>
        <time>2025-07-06T06:43:17Z</time>
      </trkpt>
      <trkpt lat="46.31525119766593" lon="8.254907615482807">
        <ele>1673.6500000000001</ele>
        <time>2025-07-06T06:43:26Z</time>
      </trkpt>
      <trkpt lat="46.315239630639553" lon="8.254761770367622">
        <ele>1674</ele>
        <time>2025-07-06T06:43:35Z</time>
      </trkpt>
      <trkpt lat="46.315226135775447" lon="8.254633191972971">
        <ele>1674.28</ele>
        <time>2025-07-06T06:43:43Z</time>
      </trkpt>
      <trkpt lat="46.315207025036216" lon="8.254507798701525">
        <ele>1674.6600000000001</ele>
        <time>2025-07-06T06:43:51Z</time>
      </trkpt>
      <trkpt lat="46.315190428867936" lon="8.254367150366306">
        <ele>1674.8599999999999</ele>
        <time>2025-07-06T06:44:00Z</time>
      </trkpt>
      <trkpt lat="46.315180622041225" lon="8.254235135391355">
        <ele>1675.1099999999999</ele>
        <time>2025-07-06T06:44:08Z</time>
      </trkpt>
      <trkpt lat="46.315175676718354" lon="8.2541015278548">
        <ele>1675.5</ele>
        <time>2025-07-06T06:44:16Z</time>
      </trkpt>
      <trkpt lat="46.315138209611177" lon="8.253971608355641">
        <ele>1676.02</ele>
        <time>2025-07-06T06:44:25Z</time>
      </trkpt>
      <trkpt lat="46.315083308145404" lon="8.253864906728268">
        <ele>1676.01</ele>
        <time>2025-07-06T06:44:33Z</time>
      </trkpt>
      <trkpt lat="46.315030585974455" lon="8.253757953643799">
        <ele>1676.25</ele>
        <time>2025-07-06T06:44:41Z</time>
      </trkpt>
      <trkpt lat="46.314976355060935" lon="8.25365980155766">
        <ele>1676.5899999999999</ele>
        <time>2025-07-06T06:44:49Z</time>
      </trkpt>
      <trkpt lat="46.314919106662273" lon="8.253564247861505">
        <ele>1676.54</ele>
        <time>2025-07-06T06:44:57Z</time>
      </trkpt>
      <trkpt lat="46.314866468310356" lon="8.253438184037805">
        <ele>1677.1300000000001</ele>
        <time>2025-07-06T06:45:06Z</time>
      </trkpt>
      <trkpt lat="46.314838640391827" lon="8.253313126042485">
        <ele>1677.76</ele>
        <time>2025-07-06T06:45:15Z</time>
      </trkpt>
      <trkpt lat="46.314824558794498" lon="8.253163425251842">
        <ele>1678.6099999999999</ele>
        <time>2025-07-06T06:45:25Z</time>
      </trkpt>
      <trkpt lat="46.314814835786819" lon="8.253027554601431">
        <ele>1679.23</ele>
        <time>2025-07-06T06:45:34Z</time>
      </trkpt>
      <trkpt lat="46.314807711169124" lon="8.252883218228817">
        <ele>1679.7</ele>
        <time>2025-07-06T06:45:43Z</time>
      </trkpt>
      <trkpt lat="46.314811063930392" lon="8.25274508446455">
        <ele>1679.98</ele>
        <time>2025-07-06T06:45:52Z</time>
      </trkpt>
      <trkpt lat="46.314888512715697" lon="8.252758076414466">
        <ele>1680.6800000000001</ele>
        <time>2025-07-06T06:46:05Z</time>
      </trkpt>
      <trkpt lat="46.314984317868948" lon="8.252755058929324">
        <ele>1680.74</ele>
        <time>2025-07-06T06:46:14Z</time>
      </trkpt>
      <trkpt lat="46.315076351165771" lon="8.252710299566388">
        <ele>1681.3299999999999</ele>
        <time>2025-07-06T06:46:26Z</time>
      </trkpt>
      <trkpt lat="46.315153213217854" lon="8.25267031788826">
        <ele>1683.01</ele>
        <time>2025-07-06T06:46:39Z</time>
      </trkpt>
      <trkpt lat="46.315216328948736" lon="8.252634359523654">
        <ele>1682.6800000000001</ele>
        <time>2025-07-06T06:47:30Z</time>
      </trkpt>
      <trkpt lat="46.315232925117016" lon="8.252595886588097">
        <ele>1682.79</ele>
        <time>2025-07-06T06:49:28Z</time>
      </trkpt>
      <trkpt lat="46.315306099131703" lon="8.252468397840858">
        <ele>1685.1300000000001</ele>
        <time>2025-07-06T06:49:45Z</time>
      </trkpt>
      <trkpt lat="46.315247844904661" lon="8.252426069229841">
        <ele>1687.76</ele>
        <time>2025-07-06T06:50:08Z</time>
      </trkpt>
      <trkpt lat="46.315187914296985" lon="8.252354152500629">
        <ele>1690.47</ele>
        <time>2025-07-06T06:50:30Z</time>
      </trkpt>
      <trkpt lat="46.315155979245901" lon="8.25223445892334">
        <ele>1694.0699999999999</ele>
        <time>2025-07-06T06:50:56Z</time>
      </trkpt>
      <trkpt lat="46.315132845193148" lon="8.252138821408153">
        <ele>1697.1900000000001</ele>
        <time>2025-07-06T06:51:18Z</time>
      </trkpt>
      <trkpt lat="46.315129492431879" lon="8.251969674602151">
        <ele>1700.0999999999999</ele>
        <time>2025-07-06T06:51:41Z</time>
      </trkpt>
      <trkpt lat="46.315187411382794" lon="8.25183036737144">
        <ele>1701.95</ele>
        <time>2025-07-06T06:51:55Z</time>
      </trkpt>
      <trkpt lat="46.315236110240221" lon="8.251690976321697">
        <ele>1703.6600000000001</ele>
        <time>2025-07-06T06:52:14Z</time>
      </trkpt>
      <trkpt lat="46.315312720835209" lon="8.251584023237228">
        <ele>1705.3800000000001</ele>
        <time>2025-07-06T06:52:31Z</time>
      </trkpt>
      <trkpt lat="46.315406933426857" lon="8.251479919999838">
        <ele>1707.6500000000001</ele>
        <time>2025-07-06T06:52:54Z</time>
      </trkpt>
      <trkpt lat="46.315492428839207" lon="8.251371877267957">
        <ele>1709.8699999999999</ele>
        <time>2025-07-06T06:53:09Z</time>
      </trkpt>
      <trkpt lat="46.315582869574428" lon="8.251303732395172">
        <ele>1710.0999999999999</ele>
        <time>2025-07-06T06:53:21Z</time>
      </trkpt>
      <trkpt lat="46.315691247582436" lon="8.251191163435578">
        <ele>1710.6600000000001</ele>
        <time>2025-07-06T06:53:34Z</time>
      </trkpt>
      <trkpt lat="46.315785543993115" lon="8.251109691336751">
        <ele>1711.0699999999999</ele>
        <time>2025-07-06T06:53:47Z</time>
      </trkpt>
      <trkpt lat="46.315873805433512" lon="8.251024782657623">
        <ele>1711.9400000000001</ele>
        <time>2025-07-06T06:53:56Z</time>
      </trkpt>
      <trkpt lat="46.315948572009802" lon="8.250920176506043">
        <ele>1713.1400000000001</ele>
        <time>2025-07-06T06:54:07Z</time>
      </trkpt>
      <trkpt lat="46.316027948632836" lon="8.250805260613561">
        <ele>1714.24</ele>
        <time>2025-07-06T06:54:20Z</time>
      </trkpt>
      <trkpt lat="46.316084694117308" lon="8.250667797401547">
        <ele>1716.1700000000001</ele>
        <time>2025-07-06T06:54:34Z</time>
      </trkpt>
      <trkpt lat="46.316135069355369" lon="8.250554306432605">
        <ele>1718.51</ele>
        <time>2025-07-06T06:54:51Z</time>
      </trkpt>
      <trkpt lat="46.31619818508625" lon="8.250442743301392">
        <ele>1720.1500000000001</ele>
        <time>2025-07-06T06:55:05Z</time>
      </trkpt>
      <trkpt lat="46.316261468455195" lon="8.250330006703734">
        <ele>1722.4300000000001</ele>
        <time>2025-07-06T06:55:23Z</time>
      </trkpt>
      <trkpt lat="46.316323494538665" lon="8.250255575403571">
        <ele>1724.79</ele>
        <time>2025-07-06T06:55:40Z</time>
      </trkpt>
      <trkpt lat="46.316359369084239" lon="8.250142084434629">
        <ele>1727.49</ele>
        <time>2025-07-06T06:55:57Z</time>
      </trkpt>
      <trkpt lat="46.316406391561031" lon="8.250004118308425">
        <ele>1729.79</ele>
        <time>2025-07-06T06:56:16Z</time>
      </trkpt>
      <trkpt lat="46.31644788198173" lon="8.249874701723456">
        <ele>1732.6099999999999</ele>
        <time>2025-07-06T06:56:34Z</time>
      </trkpt>
      <trkpt lat="46.316447798162699" lon="8.249776298180223">
        <ele>1733.0899999999999</ele>
        <time>2025-07-06T06:58:42Z</time>
      </trkpt>
      <trkpt lat="46.31650798022747" lon="8.249672865495086">
        <ele>1735.6600000000001</ele>
        <time>2025-07-06T06:59:06Z</time>
      </trkpt>
      <trkpt lat="46.316536981612444" lon="8.249555854126811">
        <ele>1739.3800000000001</ele>
        <time>2025-07-06T06:59:30Z</time>
      </trkpt>
      <trkpt lat="46.316574700176716" lon="8.249407578259707">
        <ele>1741.54</ele>
        <time>2025-07-06T06:59:46Z</time>
      </trkpt>
      <trkpt lat="46.316612083464861" lon="8.249272713437676">
        <ele>1744.71</ele>
        <time>2025-07-06T07:00:09Z</time>
      </trkpt>
      <trkpt lat="46.316594313830137" lon="8.249142542481422">
        <ele>1747.8</ele>
        <time>2025-07-06T07:00:31Z</time>
      </trkpt>
      <trkpt lat="46.316665140911937" lon="8.249128544703126">
        <ele>1750.1600000000001</ele>
        <time>2025-07-06T07:00:49Z</time>
      </trkpt>
      <trkpt lat="46.316740745678544" lon="8.249228792265058">
        <ele>1753.5599999999999</ele>
        <time>2025-07-06T07:01:12Z</time>
      </trkpt>
      <trkpt lat="46.316813584417105" lon="8.249335074797273">
        <ele>1756.3499999999999</ele>
        <time>2025-07-06T07:01:32Z</time>
      </trkpt>
      <trkpt lat="46.316875107586384" lon="8.249324765056372">
        <ele>1758.9100000000001</ele>
        <time>2025-07-06T07:01:52Z</time>
      </trkpt>
      <trkpt lat="46.316884411498904" lon="8.249176740646362">
        <ele>1760.4100000000001</ele>
        <time>2025-07-06T07:02:07Z</time>
      </trkpt>
      <trkpt lat="46.316945180296898" lon="8.249083030968905">
        <ele>1763.6400000000001</ele>
        <time>2025-07-06T07:02:31Z</time>
      </trkpt>
      <trkpt lat="46.317030088976026" lon="8.24914631433785">
        <ele>1767.4100000000001</ele>
        <time>2025-07-06T07:02:56Z</time>
      </trkpt>
      <trkpt lat="46.317058335989714" lon="8.249277155846357">
        <ele>1770.1900000000001</ele>
        <time>2025-07-06T07:03:17Z</time>
      </trkpt>
      <trkpt lat="46.317039728164673" lon="8.249409841373563">
        <ele>1771.24</ele>
        <time>2025-07-06T07:03:30Z</time>
      </trkpt>
      <trkpt lat="46.317048612982035" lon="8.249540431424975">
        <ele>1774.72</ele>
        <time>2025-07-06T07:03:55Z</time>
      </trkpt>
      <trkpt lat="46.3171143271029" lon="8.249456947669387">
        <ele>1777.9100000000001</ele>
        <time>2025-07-06T07:04:18Z</time>
      </trkpt>
      <trkpt lat="46.31717249751091" lon="8.249320574104786">
        <ele>1779.03</ele>
        <time>2025-07-06T07:04:33Z</time>
      </trkpt>
      <trkpt lat="46.317219519987702" lon="8.24919811449945">
        <ele>1781.47</ele>
        <time>2025-07-06T07:04:53Z</time>
      </trkpt>
      <trkpt lat="46.317263273522258" lon="8.249067356809974">
        <ele>1784.3</ele>
        <time>2025-07-06T07:05:14Z</time>
      </trkpt>
      <trkpt lat="46.317270901054144" lon="8.248932659626007">
        <ele>1787.04</ele>
        <time>2025-07-06T07:05:35Z</time>
      </trkpt>
      <trkpt lat="46.31728196516633" lon="8.248806009069085">
        <ele>1789.72</ele>
        <time>2025-07-06T07:05:57Z</time>
      </trkpt>
      <trkpt lat="46.317275930196047" lon="8.248672569170594">
        <ele>1792.9300000000001</ele>
        <time>2025-07-06T07:06:25Z</time>
      </trkpt>
      <trkpt lat="46.317279115319252" lon="8.248550947755575">
        <ele>1795.1600000000001</ele>
        <time>2025-07-06T07:06:46Z</time>
      </trkpt>
      <trkpt lat="46.31737039424479" lon="8.248554971069098">
        <ele>1797.0999999999999</ele>
        <time>2025-07-06T07:07:04Z</time>
      </trkpt>
      <trkpt lat="46.317460499703884" lon="8.248525885865092">
        <ele>1799.5</ele>
        <time>2025-07-06T07:07:26Z</time>
      </trkpt>
      <trkpt lat="46.317464020103216" lon="8.248393619433045">
        <ele>1801.8099999999999</ele>
        <time>2025-07-06T07:07:45Z</time>
      </trkpt>
      <trkpt lat="46.317538367584348" lon="8.24832446873188">
        <ele>1804.76</ele>
        <time>2025-07-06T07:08:06Z</time>
      </trkpt>
      <trkpt lat="46.317610451951623" lon="8.248245595023036">
        <ele>1807.5799999999999</ele>
        <time>2025-07-06T07:08:26Z</time>
      </trkpt>
      <trkpt lat="46.317671304568648" lon="8.248159345239401">
        <ele>1810.4400000000001</ele>
        <time>2025-07-06T07:08:48Z</time>
      </trkpt>
      <trkpt lat="46.317683793604374" lon="8.248014925047755">
        <ele>1814.04</ele>
        <time>2025-07-06T07:09:16Z</time>
      </trkpt>
      <trkpt lat="46.317649930715561" lon="8.247885592281818">
        <ele>1817.4100000000001</ele>
        <time>2025-07-06T07:09:43Z</time>
      </trkpt>
      <trkpt lat="46.317580528557301" lon="8.247807724401355">
        <ele>1820.53</ele>
        <time>2025-07-06T07:10:07Z</time>
      </trkpt>
      <trkpt lat="46.317508863285184" lon="8.247723067179322">
        <ele>1823.8699999999999</ele>
        <time>2025-07-06T07:11:00Z</time>
      </trkpt>
      <trkpt lat="46.317450357601047" lon="8.247622400522232">
        <ele>1825.98</ele>
        <time>2025-07-06T07:11:23Z</time>
      </trkpt>
      <trkpt lat="46.317360419780016" lon="8.247595159336925">
        <ele>1827.6300000000001</ele>
        <time>2025-07-06T07:11:43Z</time>
      </trkpt>
      <trkpt lat="46.317275259643793" lon="8.24754168279469">
        <ele>1828.03</ele>
        <time>2025-07-06T07:11:55Z</time>
      </trkpt>
      <trkpt lat="46.317206025123596" lon="8.247434813529253">
        <ele>1831.2</ele>
        <time>2025-07-06T07:12:25Z</time>
      </trkpt>
      <trkpt lat="46.317139891907573" lon="8.247356442734599">
        <ele>1834.3</ele>
        <time>2025-07-06T07:12:49Z</time>
      </trkpt>
      <trkpt lat="46.317098652943969" lon="8.247265666723251">
        <ele>1836.9400000000001</ele>
        <time>2025-07-06T07:13:13Z</time>
      </trkpt>
      <trkpt lat="46.317095384001732" lon="8.247159132733941">
        <ele>1839.79</ele>
        <time>2025-07-06T07:13:39Z</time>
      </trkpt>
      <trkpt lat="46.317182471975684" lon="8.24711755849421">
        <ele>1842.6199999999999</ele>
        <time>2025-07-06T07:14:03Z</time>
      </trkpt>
      <trkpt lat="46.317180376499891" lon="8.247021920979023">
        <ele>1844.8900000000001</ele>
        <time>2025-07-06T07:14:29Z</time>
      </trkpt>
      <trkpt lat="46.317080548033118" lon="8.24700515717268">
        <ele>1847.8199999999999</ele>
        <time>2025-07-06T07:14:48Z</time>
      </trkpt>
      <trkpt lat="46.317005194723606" lon="8.246922511607409">
        <ele>1849.6300000000001</ele>
        <time>2025-07-06T07:15:04Z</time>
      </trkpt>
      <trkpt lat="46.316921124234796" lon="8.246850511059165">
        <ele>1852.0699999999999</ele>
        <time>2025-07-06T07:15:32Z</time>
      </trkpt>
      <trkpt lat="46.316988011822104" lon="8.246785970404744">
        <ele>1854.3599999999999</ele>
        <time>2025-07-06T07:15:49Z</time>
      </trkpt>
      <trkpt lat="46.317053977400064" lon="8.246679855510593">
        <ele>1855.8599999999999</ele>
        <time>2025-07-06T07:16:07Z</time>
      </trkpt>
      <trkpt lat="46.31715246476233" lon="8.246617745608091">
        <ele>1857.47</ele>
        <time>2025-07-06T07:16:21Z</time>
      </trkpt>
      <trkpt lat="46.317249108105898" lon="8.246643478050828">
        <ele>1858.47</ele>
        <time>2025-07-06T07:16:33Z</time>
      </trkpt>
      <trkpt lat="46.317343153059483" lon="8.246673736721277">
        <ele>1860.25</ele>
        <time>2025-07-06T07:16:53Z</time>
      </trkpt>
      <trkpt lat="46.317431498318911" lon="8.246691171079874">
        <ele>1863.2</ele>
        <time>2025-07-06T07:17:14Z</time>
      </trkpt>
      <trkpt lat="46.317536272108555" lon="8.24671782553196">
        <ele>1864.95</ele>
        <time>2025-07-06T07:17:31Z</time>
      </trkpt>
      <trkpt lat="46.317630065605044" lon="8.246734840795398">
        <ele>1868.3199999999999</ele>
        <time>2025-07-06T07:18:01Z</time>
      </trkpt>
      <trkpt lat="46.317732492461801" lon="8.246699133887887">
        <ele>1871.0999999999999</ele>
        <time>2025-07-06T07:18:24Z</time>
      </trkpt>
      <trkpt lat="46.317821508273482" lon="8.24669829569757">
        <ele>1873.05</ele>
        <time>2025-07-06T07:18:52Z</time>
      </trkpt>
      <trkpt lat="46.317900381982327" lon="8.246690919622779">
        <ele>1875.9100000000001</ele>
        <time>2025-07-06T07:19:16Z</time>
      </trkpt>
      <trkpt lat="46.317911529913545" lon="8.246554965153337">
        <ele>1879.0899999999999</ele>
        <time>2025-07-06T07:19:40Z</time>
      </trkpt>
      <trkpt lat="46.317859394475818" lon="8.246461506932974">
        <ele>1880.1400000000001</ele>
        <time>2025-07-06T07:19:54Z</time>
      </trkpt>
      <trkpt lat="46.317787477746606" lon="8.246403252705932">
        <ele>1883.0699999999999</ele>
        <time>2025-07-06T07:20:16Z</time>
      </trkpt>
      <trkpt lat="46.317708352580667" lon="8.246362432837486">
        <ele>1885.78</ele>
        <time>2025-07-06T07:20:35Z</time>
      </trkpt>
      <trkpt lat="46.317609110847116" lon="8.246351536363363">
        <ele>1888.02</ele>
        <time>2025-07-06T07:20:53Z</time>
      </trkpt>
      <trkpt lat="46.317626796662807" lon="8.24624533765018">
        <ele>1890.6300000000001</ele>
        <time>2025-07-06T07:21:16Z</time>
      </trkpt>
      <trkpt lat="46.31761078722775" lon="8.246118100360036">
        <ele>1893.1400000000001</ele>
        <time>2025-07-06T07:21:38Z</time>
      </trkpt>
      <trkpt lat="46.317601231858134" lon="8.245983989909291">
        <ele>1897.0799999999999</ele>
        <time>2025-07-06T07:22:05Z</time>
      </trkpt>
      <trkpt lat="46.317613050341606" lon="8.245858680456877">
        <ele>1899.71</ele>
        <time>2025-07-06T07:22:24Z</time>
      </trkpt>
      <trkpt lat="46.317590670660138" lon="8.245723899453878">
        <ele>1902.05</ele>
        <time>2025-07-06T07:22:42Z</time>
      </trkpt>
      <trkpt lat="46.317601315677166" lon="8.245601607486606">
        <ele>1904.9100000000001</ele>
        <time>2025-07-06T07:23:06Z</time>
      </trkpt>
      <trkpt lat="46.317605255171657" lon="8.245508400723338">
        <ele>1908.0999999999999</ele>
        <time>2025-07-06T07:23:33Z</time>
      </trkpt>
      <trkpt lat="46.317560663446784" lon="8.245377810671926">
        <ele>1911.77</ele>
        <time>2025-07-06T07:24:02Z</time>
      </trkpt>
      <trkpt lat="46.317563680931926" lon="8.245261218398809">
        <ele>1913.5899999999999</ele>
        <time>2025-07-06T07:24:20Z</time>
      </trkpt>
      <trkpt lat="46.317486735060811" lon="8.245172034949064">
        <ele>1916.1199999999999</ele>
        <time>2025-07-06T07:24:41Z</time>
      </trkpt>
      <trkpt lat="46.317489752545953" lon="8.245044630020857">
        <ele>1918.6099999999999</ele>
        <time>2025-07-06T07:25:02Z</time>
      </trkpt>
      <trkpt lat="46.317521687597036" lon="8.244909765198827">
        <ele>1920.98</ele>
        <time>2025-07-06T07:25:20Z</time>
      </trkpt>
      <trkpt lat="46.317538702860475" lon="8.244779175147414">
        <ele>1923.72</ele>
        <time>2025-07-06T07:25:42Z</time>
      </trkpt>
      <trkpt lat="46.317497463896871" lon="8.244654200971127">
        <ele>1926.25</ele>
        <time>2025-07-06T07:26:04Z</time>
      </trkpt>
      <trkpt lat="46.317510707303882" lon="8.244522605091333">
        <ele>1929.2</ele>
        <time>2025-07-06T07:26:26Z</time>
      </trkpt>
      <trkpt lat="46.317469552159309" lon="8.244418501853943">
        <ele>1931.1900000000001</ele>
        <time>2025-07-06T07:26:42Z</time>
      </trkpt>
      <trkpt lat="46.317438371479511" lon="8.244295036420226">
        <ele>1934.1800000000001</ele>
        <time>2025-07-06T07:27:09Z</time>
      </trkpt>
      <trkpt lat="46.317390594631433" lon="8.244176683947444">
        <ele>1935.95</ele>
        <time>2025-07-06T07:27:26Z</time>
      </trkpt>
      <trkpt lat="46.317323204129934" lon="8.244089595973492">
        <ele>1939.24</ele>
        <time>2025-07-06T07:27:52Z</time>
      </trkpt>
      <trkpt lat="46.317245755344629" lon="8.24399521574378">
        <ele>1941.04</ele>
        <time>2025-07-06T07:28:10Z</time>
      </trkpt>
      <trkpt lat="46.317187584936619" lon="8.24389161542058">
        <ele>1942.49</ele>
        <time>2025-07-06T07:28:23Z</time>
      </trkpt>
      <trkpt lat="46.317136622965336" lon="8.243791703134775">
        <ele>1944.1400000000001</ele>
        <time>2025-07-06T07:28:36Z</time>
      </trkpt>
      <trkpt lat="46.317070825025439" lon="8.243705788627267">
        <ele>1944.51</ele>
        <time>2025-07-06T07:28:47Z</time>
      </trkpt>
      <trkpt lat="46.31702346727252" lon="8.243578802794218">
        <ele>1945.48</ele>
        <time>2025-07-06T07:29:00Z</time>
      </trkpt>
      <trkpt lat="46.316986586898565" lon="8.243443099781871">
        <ele>1946.5999999999999</ele>
        <time>2025-07-06T07:29:15Z</time>
      </trkpt>
      <trkpt lat="46.316952640190721" lon="8.243313683196902">
        <ele>1947.3499999999999</ele>
        <time>2025-07-06T07:29:26Z</time>
      </trkpt>
      <trkpt lat="46.316934954375029" lon="8.243180075660348">
        <ele>1948.1300000000001</ele>
        <time>2025-07-06T07:29:41Z</time>
      </trkpt>
      <trkpt lat="46.316932523623109" lon="8.24304386973381">
        <ele>1948.73</ele>
        <time>2025-07-06T07:29:52Z</time>
      </trkpt>
      <trkpt lat="46.316936798393726" lon="8.242896180599928">
        <ele>1949.49</ele>
        <time>2025-07-06T07:30:45Z</time>
      </trkpt>
      <trkpt lat="46.316921627148986" lon="8.242864748463035">
        <ele>1950.25</ele>
        <time>2025-07-06T07:34:31Z</time>
      </trkpt>
      <trkpt lat="46.316858846694231" lon="8.242763578891754">
        <ele>1950.6500000000001</ele>
        <time>2025-07-06T07:35:23Z</time>
      </trkpt>
      <trkpt lat="46.316795311868191" lon="8.242663331329823">
        <ele>1951.3199999999999</ele>
        <time>2025-07-06T07:35:32Z</time>
      </trkpt>
      <trkpt lat="46.316737979650497" lon="8.242566017434001">
        <ele>1952.6800000000001</ele>
        <time>2025-07-06T07:35:41Z</time>
      </trkpt>
      <trkpt lat="46.316676288843155" lon="8.242464847862721">
        <ele>1952.8800000000001</ele>
        <time>2025-07-06T07:35:51Z</time>
      </trkpt>
      <trkpt lat="46.316619794815779" lon="8.242355044931173">
        <ele>1953.99</ele>
        <time>2025-07-06T07:36:00Z</time>
      </trkpt>
      <trkpt lat="46.316563384607434" lon="8.242244152352214">
        <ele>1954.5599999999999</ele>
        <time>2025-07-06T07:36:08Z</time>
      </trkpt>
      <trkpt lat="46.316515356302261" lon="8.242118926718831">
        <ele>1955.04</ele>
        <time>2025-07-06T07:36:17Z</time>
      </trkpt>
      <trkpt lat="46.316460873931646" lon="8.242004765197635">
        <ele>1955.4400000000001</ele>
        <time>2025-07-06T07:36:27Z</time>
      </trkpt>
      <trkpt lat="46.316400691866875" lon="8.241906026378274">
        <ele>1956.1099999999999</ele>
        <time>2025-07-06T07:36:37Z</time>
      </trkpt>
      <trkpt lat="46.316315280273557" lon="8.241853136569262">
        <ele>1955.79</ele>
        <time>2025-07-06T07:36:46Z</time>
      </trkpt>
      <trkpt lat="46.316240765154362" lon="8.241782644763589">
        <ele>1954.6099999999999</ele>
        <time>2025-07-06T07:36:56Z</time>
      </trkpt>
      <trkpt lat="46.316184354946017" lon="8.241682564839721">
        <ele>1953.0699999999999</ele>
        <time>2025-07-06T07:37:06Z</time>
      </trkpt>
      <trkpt lat="46.316117970272899" lon="8.241585670039058">
        <ele>1951.8</ele>
        <time>2025-07-06T07:37:15Z</time>
      </trkpt>
      <trkpt lat="46.316051837056875" lon="8.241477459669113">
        <ele>1950.72</ele>
        <time>2025-07-06T07:37:24Z</time>
      </trkpt>
      <trkpt lat="46.316001294180751" lon="8.241361202672124">
        <ele>1950.02</ele>
        <time>2025-07-06T07:37:33Z</time>
      </trkpt>
      <trkpt lat="46.315961144864559" lon="8.241247963160276">
        <ele>1949.26</ele>
        <time>2025-07-06T07:37:44Z</time>
      </trkpt>
      <trkpt lat="46.315900795161724" lon="8.241153582930565">
        <ele>1948.8800000000001</ele>
        <time>2025-07-06T07:37:54Z</time>
      </trkpt>
      <trkpt lat="46.315816473215818" lon="8.241084096953273">
        <ele>1949.8499999999999</ele>
        <time>2025-07-06T07:38:04Z</time>
      </trkpt>
      <trkpt lat="46.31575059145689" lon="8.240976305678487">
        <ele>1949.77</ele>
        <time>2025-07-06T07:38:14Z</time>
      </trkpt>
      <trkpt lat="46.315670292824507" lon="8.240891061723232">
        <ele>1950.1600000000001</ele>
        <time>2025-07-06T07:38:24Z</time>
      </trkpt>
      <trkpt lat="46.315595526248217" lon="8.240814786404371">
        <ele>1951.6400000000001</ele>
        <time>2025-07-06T07:38:34Z</time>
      </trkpt>
      <trkpt lat="46.315518748015165" lon="8.240739097818732">
        <ele>1952.76</ele>
        <time>2025-07-06T07:38:46Z</time>
      </trkpt>
      <trkpt lat="46.315448759123683" lon="8.240652848035097">
        <ele>1953.76</ele>
        <time>2025-07-06T07:38:57Z</time>
      </trkpt>
      <trkpt lat="46.31536410190165" lon="8.240643544122577">
        <ele>1954.46</ele>
        <time>2025-07-06T07:39:09Z</time>
      </trkpt>
      <trkpt lat="46.315274247899652" lon="8.240619068965316">
        <ele>1955.1700000000001</ele>
        <time>2025-07-06T07:39:19Z</time>
      </trkpt>
      <trkpt lat="46.315190847963095" lon="8.240548493340612">
        <ele>1955.98</ele>
        <time>2025-07-06T07:39:29Z</time>
      </trkpt>
      <trkpt lat="46.315118763595819" lon="8.240455454215407">
        <ele>1956.8499999999999</ele>
        <time>2025-07-06T07:39:38Z</time>
      </trkpt>
      <trkpt lat="46.315048020333052" lon="8.240379597991705">
        <ele>1957.6900000000001</ele>
        <time>2025-07-06T07:39:49Z</time>
      </trkpt>
      <trkpt lat="46.314972583204508" lon="8.240302568301559">
        <ele>1958.1600000000001</ele>
        <time>2025-07-06T07:40:00Z</time>
      </trkpt>
      <trkpt lat="46.314916927367449" lon="8.240191508084536">
        <ele>1959.1800000000001</ele>
        <time>2025-07-06T07:40:11Z</time>
      </trkpt>
      <trkpt lat="46.314870491623878" lon="8.240071311593056">
        <ele>1960.3399999999999</ele>
        <time>2025-07-06T07:40:23Z</time>
      </trkpt>
      <trkpt lat="46.314815757796168" lon="8.239950779825449">
        <ele>1961.1300000000001</ele>
        <time>2025-07-06T07:40:35Z</time>
      </trkpt>
      <trkpt lat="46.314763873815536" lon="8.239832762628794">
        <ele>1961.6099999999999</ele>
        <time>2025-07-06T07:40:46Z</time>
      </trkpt>
      <trkpt lat="46.314715091139078" lon="8.239685408771038">
        <ele>1963.1400000000001</ele>
        <time>2025-07-06T07:41:00Z</time>
      </trkpt>
      <trkpt lat="46.314670415595174" lon="8.239554483443499">
        <ele>1963.5599999999999</ele>
        <time>2025-07-06T07:41:10Z</time>
      </trkpt>
      <trkpt lat="46.314630601555109" lon="8.239425653591752">
        <ele>1963.98</ele>
        <time>2025-07-06T07:41:20Z</time>
      </trkpt>
      <trkpt lat="46.314569246023893" lon="8.239304115995765">
        <ele>1964.8599999999999</ele>
        <time>2025-07-06T07:41:32Z</time>
      </trkpt>
      <trkpt lat="46.314502190798521" lon="8.239204455167055">
        <ele>1964.3199999999999</ele>
        <time>2025-07-06T07:41:42Z</time>
      </trkpt>
      <trkpt lat="46.314421389251947" lon="8.239101860672236">
        <ele>1964.03</ele>
        <time>2025-07-06T07:42:07Z</time>
      </trkpt>
      <trkpt lat="46.314337318763137" lon="8.239045282825828">
        <ele>1964.24</ele>
        <time>2025-07-06T07:42:16Z</time>
      </trkpt>
      <trkpt lat="46.314254254102707" lon="8.238992812111974">
        <ele>1964.8099999999999</ele>
        <time>2025-07-06T07:42:25Z</time>
      </trkpt>
      <trkpt lat="46.314186276867986" lon="8.238887535408139">
        <ele>1964.8099999999999</ele>
        <time>2025-07-06T07:42:34Z</time>
      </trkpt>
      <trkpt lat="46.314203962683678" lon="8.238754514604807">
        <ele>1965.0999999999999</ele>
        <time>2025-07-06T07:42:46Z</time>
      </trkpt>
      <trkpt lat="46.314202705398202" lon="8.238612525165081">
        <ele>1965.6700000000001</ele>
        <time>2025-07-06T07:42:58Z</time>
      </trkpt>
      <trkpt lat="46.314177559688687" lon="8.238482940942049">
        <ele>1966.97</ele>
        <time>2025-07-06T07:43:13Z</time>
      </trkpt>
      <trkpt lat="46.314107403159142" lon="8.238411191850901">
        <ele>1967.71</ele>
        <time>2025-07-06T07:43:25Z</time>
      </trkpt>
      <trkpt lat="46.31403548642993" lon="8.238320248201489">
        <ele>1967.8</ele>
        <time>2025-07-06T07:43:35Z</time>
      </trkpt>
      <trkpt lat="46.313953176140785" lon="8.238267190754414">
        <ele>1968.3299999999999</ele>
        <time>2025-07-06T07:43:44Z</time>
      </trkpt>
      <trkpt lat="46.313894083723426" lon="8.238173732534051">
        <ele>1968.8099999999999</ele>
        <time>2025-07-06T07:43:52Z</time>
      </trkpt>
      <trkpt lat="46.313802637159824" lon="8.238159818574786">
        <ele>1969.01</ele>
        <time>2025-07-06T07:44:01Z</time>
      </trkpt>
      <trkpt lat="46.313712364062667" lon="8.238113131374121">
        <ele>1969.48</ele>
        <time>2025-07-06T07:44:10Z</time>
      </trkpt>
      <trkpt lat="46.313624689355493" lon="8.238079939037561">
        <ele>1969.0899999999999</ele>
        <time>2025-07-06T07:44:19Z</time>
      </trkpt>
      <trkpt lat="46.313529973849654" lon="8.23809452354908">
        <ele>1969.24</ele>
        <time>2025-07-06T07:44:28Z</time>
      </trkpt>
      <trkpt lat="46.313440874218941" lon="8.238106342032552">
        <ele>1969.1700000000001</ele>
        <time>2025-07-06T07:44:37Z</time>
      </trkpt>
      <trkpt lat="46.313353031873703" lon="8.238126710057259">
        <ele>1968.3499999999999</ele>
        <time>2025-07-06T07:44:45Z</time>
      </trkpt>
      <trkpt lat="46.313257897272706" lon="8.238174403086305">
        <ele>1967.8599999999999</ele>
        <time>2025-07-06T07:44:54Z</time>
      </trkpt>
      <trkpt lat="46.313168797641993" lon="8.238209439441562">
        <ele>1967.22</ele>
        <time>2025-07-06T07:45:02Z</time>
      </trkpt>
      <trkpt lat="46.313076009973884" lon="8.238228801637888">
        <ele>1966.6800000000001</ele>
        <time>2025-07-06T07:45:11Z</time>
      </trkpt>
      <trkpt lat="46.312986742705107" lon="8.238227292895317">
        <ele>1966.0999999999999</ele>
        <time>2025-07-06T07:45:19Z</time>
      </trkpt>
      <trkpt lat="46.312890266999602" lon="8.238210193812847">
        <ele>1965.7</ele>
        <time>2025-07-06T07:45:28Z</time>
      </trkpt>
      <trkpt lat="46.312787169590592" lon="8.238218827173114">
        <ele>1966.1700000000001</ele>
        <time>2025-07-06T07:45:37Z</time>
      </trkpt>
      <trkpt lat="46.312696058303118" lon="8.238192675635219">
        <ele>1966.3699999999999</ele>
        <time>2025-07-06T07:45:46Z</time>
      </trkpt>
      <trkpt lat="46.312617352232337" lon="8.23810089379549">
        <ele>1966.3199999999999</ele>
        <time>2025-07-06T07:45:56Z</time>
      </trkpt>
      <trkpt lat="46.312544178217649" lon="8.237995533272624">
        <ele>1966.8399999999999</ele>
        <time>2025-07-06T07:46:05Z</time>
      </trkpt>
      <trkpt lat="46.312484834343195" lon="8.237880198284984">
        <ele>1967.72</ele>
        <time>2025-07-06T07:46:14Z</time>
      </trkpt>
      <trkpt lat="46.312434375286102" lon="8.237760588526726">
        <ele>1967.4100000000001</ele>
        <time>2025-07-06T07:46:24Z</time>
      </trkpt>
      <trkpt lat="46.312392046675086" lon="8.237657491117716">
        <ele>1967.05</ele>
        <time>2025-07-06T07:48:35Z</time>
      </trkpt>
      <trkpt lat="46.312344102188945" lon="8.237535199150443">
        <ele>1966.8</ele>
        <time>2025-07-06T07:48:44Z</time>
      </trkpt>
      <trkpt lat="46.312302192673087" lon="8.237408380955458">
        <ele>1967.21</ele>
        <time>2025-07-06T07:48:54Z</time>
      </trkpt>
      <trkpt lat="46.312254248186946" lon="8.23728583753109">
        <ele>1966.1400000000001</ele>
        <time>2025-07-06T07:49:03Z</time>
      </trkpt>
      <trkpt lat="46.312222648411989" lon="8.237150134518743">
        <ele>1966.1700000000001</ele>
        <time>2025-07-06T07:49:10Z</time>
      </trkpt>
      <trkpt lat="46.312177134677768" lon="8.237031111493707">
        <ele>1965.8599999999999</ele>
        <time>2025-07-06T07:49:17Z</time>
      </trkpt>
      <trkpt lat="46.312120305374265" lon="8.236911334097385">
        <ele>1966.53</ele>
        <time>2025-07-06T07:49:25Z</time>
      </trkpt>
      <trkpt lat="46.312063056975603" lon="8.236804883927107">
        <ele>1966.4100000000001</ele>
        <time>2025-07-06T07:49:32Z</time>
      </trkpt>
      <trkpt lat="46.311982506886125" lon="8.236715784296393">
        <ele>1966.1099999999999</ele>
        <time>2025-07-06T07:49:40Z</time>
      </trkpt>
      <trkpt lat="46.311909584328532" lon="8.236627271398902">
        <ele>1966.27</ele>
        <time>2025-07-06T07:49:47Z</time>
      </trkpt>
      <trkpt lat="46.311884019523859" lon="8.236552840098739">
        <ele>1966.75</ele>
        <time>2025-07-06T07:50:22Z</time>
      </trkpt>
      <trkpt lat="46.311871279031038" lon="8.236414203420281">
        <ele>1967.3499999999999</ele>
        <time>2025-07-06T07:52:51Z</time>
      </trkpt>
      <trkpt lat="46.311856862157583" lon="8.236262993887067">
        <ele>1967.77</ele>
        <time>2025-07-06T07:52:59Z</time>
      </trkpt>
      <trkpt lat="46.311813611537218" lon="8.236125782132149">
        <ele>1967.3800000000001</ele>
        <time>2025-07-06T07:53:07Z</time>
      </trkpt>
      <trkpt lat="46.311779664829373" lon="8.235990749672055">
        <ele>1967.9000000000001</ele>
        <time>2025-07-06T07:53:15Z</time>
      </trkpt>
      <trkpt lat="46.311745634302497" lon="8.235852532088757">
        <ele>1967.51</ele>
        <time>2025-07-06T07:53:23Z</time>
      </trkpt>
      <trkpt lat="46.311703640967607" lon="8.235724121332169">
        <ele>1967.49</ele>
        <time>2025-07-06T07:53:31Z</time>
      </trkpt>
      <trkpt lat="46.311654271557927" lon="8.235605601221323">
        <ele>1967.47</ele>
        <time>2025-07-06T07:53:39Z</time>
      </trkpt>
      <trkpt lat="46.311624767258763" lon="8.235470987856388">
        <ele>1968.2</ele>
        <time>2025-07-06T07:53:47Z</time>
      </trkpt>
      <trkpt lat="46.311602471396327" lon="8.235331010073423">
        <ele>1968.1199999999999</ele>
        <time>2025-07-06T07:53:54Z</time>
      </trkpt>
      <trkpt lat="46.311567854136229" lon="8.235202096402645">
        <ele>1968.54</ele>
        <time>2025-07-06T07:54:01Z</time>
      </trkpt>
      <trkpt lat="46.311533823609352" lon="8.23508215136826">
        <ele>1968.6900000000001</ele>
        <time>2025-07-06T07:54:08Z</time>
      </trkpt>
      <trkpt lat="46.311501134186983" lon="8.234945358708501">
        <ele>1969.21</ele>
        <time>2025-07-06T07:54:16Z</time>
      </trkpt>
      <trkpt lat="46.31146190688014" lon="8.234828431159258">
        <ele>1969.5599999999999</ele>
        <time>2025-07-06T07:54:23Z</time>
      </trkpt>
      <trkpt lat="46.311411364004016" lon="8.234704546630383">
        <ele>1969.8900000000001</ele>
        <time>2025-07-06T07:54:31Z</time>
      </trkpt>
      <trkpt lat="46.311370376497507" lon="8.234582673758268">
        <ele>1969.6900000000001</ele>
        <time>2025-07-06T07:54:38Z</time>
      </trkpt>
      <trkpt lat="46.311323437839746" lon="8.234451245516539">
        <ele>1970.1300000000001</ele>
        <time>2025-07-06T07:54:46Z</time>
      </trkpt>
      <trkpt lat="46.31127867847681" lon="8.234338173642755">
        <ele>1970.2</ele>
        <time>2025-07-06T07:54:53Z</time>
      </trkpt>
      <trkpt lat="46.311241714283824" lon="8.234196687117219">
        <ele>1970.0899999999999</ele>
        <time>2025-07-06T07:55:01Z</time>
      </trkpt>
      <trkpt lat="46.31119997240603" lon="8.234060313552618">
        <ele>1970.0699999999999</ele>
        <time>2025-07-06T07:55:09Z</time>
      </trkpt>
      <trkpt lat="46.311154793947935" lon="8.233941039070487">
        <ele>1969.8</ele>
        <time>2025-07-06T07:55:16Z</time>
      </trkpt>
      <trkpt lat="46.311106262728572" lon="8.233828973025084">
        <ele>1969.3900000000001</ele>
        <time>2025-07-06T07:55:23Z</time>
      </trkpt>
      <trkpt lat="46.311043482273817" lon="8.233727384358645">
        <ele>1969.2</ele>
        <time>2025-07-06T07:55:31Z</time>
      </trkpt>
      <trkpt lat="46.310993861407042" lon="8.233603751286864">
        <ele>1969.54</ele>
        <time>2025-07-06T07:55:39Z</time>
      </trkpt>
      <trkpt lat="46.310950443148613" lon="8.233476262539625">
        <ele>1969.8900000000001</ele>
        <time>2025-07-06T07:55:47Z</time>
      </trkpt>
      <trkpt lat="46.310904007405043" lon="8.233349025249481">
        <ele>1970.02</ele>
        <time>2025-07-06T07:55:55Z</time>
      </trkpt>
      <trkpt lat="46.310852542519569" lon="8.233223212882876">
        <ele>1970.1700000000001</ele>
        <time>2025-07-06T07:56:03Z</time>
      </trkpt>
      <trkpt lat="46.310811387374997" lon="8.233096394687891">
        <ele>1970.3399999999999</ele>
        <time>2025-07-06T07:56:10Z</time>
      </trkpt>
      <trkpt lat="46.310773501172662" lon="8.232968738302589">
        <ele>1969.96</ele>
        <time>2025-07-06T07:56:17Z</time>
      </trkpt>
      <trkpt lat="46.31074114702642" lon="8.232839992269874">
        <ele>1970.0799999999999</ele>
        <time>2025-07-06T07:56:24Z</time>
      </trkpt>
      <trkpt lat="46.310707032680511" lon="8.232719879597426">
        <ele>1970.1600000000001</ele>
        <time>2025-07-06T07:56:31Z</time>
      </trkpt>
      <trkpt lat="46.310673421248794" lon="8.232595073059201">
        <ele>1969.97</ele>
        <time>2025-07-06T07:56:38Z</time>
      </trkpt>
      <trkpt lat="46.310646096244454" lon="8.232454089447856">
        <ele>1969.8</ele>
        <time>2025-07-06T07:56:46Z</time>
      </trkpt>
      <trkpt lat="46.310616508126259" lon="8.232316039502621">
        <ele>1969.71</ele>
        <time>2025-07-06T07:56:54Z</time>
      </trkpt>
      <trkpt lat="46.310586668550968" lon="8.23218259960413">
        <ele>1969.5899999999999</ele>
        <time>2025-07-06T07:57:02Z</time>
      </trkpt>
      <trkpt lat="46.310546016320586" lon="8.232048824429512">
        <ele>1969.5899999999999</ele>
        <time>2025-07-06T07:57:10Z</time>
      </trkpt>
      <trkpt lat="46.310506705194712" lon="8.231917815282941">
        <ele>1969.5599999999999</ele>
        <time>2025-07-06T07:57:18Z</time>
      </trkpt>
      <trkpt lat="46.310475440695882" lon="8.231779765337706">
        <ele>1969.8299999999999</ele>
        <time>2025-07-06T07:57:26Z</time>
      </trkpt>
      <trkpt lat="46.310429675504565" lon="8.231647498905659">
        <ele>1969.78</ele>
        <time>2025-07-06T07:57:34Z</time>
      </trkpt>
      <trkpt lat="46.310383742675185" lon="8.231519004330039">
        <ele>1969.74</ele>
        <time>2025-07-06T07:57:42Z</time>
      </trkpt>
      <trkpt lat="46.310333786532283" lon="8.23139201849699">
        <ele>1969.99</ele>
        <time>2025-07-06T07:57:50Z</time>
      </trkpt>
      <trkpt lat="46.310294978320599" lon="8.231271067634225">
        <ele>1970.4400000000001</ele>
        <time>2025-07-06T07:57:58Z</time>
      </trkpt>
      <trkpt lat="46.310249883681536" lon="8.231143830344081">
        <ele>1970.9400000000001</ele>
        <time>2025-07-06T07:58:06Z</time>
      </trkpt>
      <trkpt lat="46.310210069641471" lon="8.231011480093002">
        <ele>1971.75</ele>
        <time>2025-07-06T07:58:14Z</time>
      </trkpt>
      <trkpt lat="46.310168830677867" lon="8.230882398784161">
        <ele>1972.0599999999999</ele>
        <time>2025-07-06T07:58:22Z</time>
      </trkpt>
      <trkpt lat="46.310113929212093" lon="8.23076019063592">
        <ele>1972.48</ele>
        <time>2025-07-06T07:58:30Z</time>
      </trkpt>
      <trkpt lat="46.310057854279876" lon="8.230638988316059">
        <ele>1972.7</ele>
        <time>2025-07-06T07:58:38Z</time>
      </trkpt>
      <trkpt lat="46.310006976127625" lon="8.230518288910389">
        <ele>1972.8099999999999</ele>
        <time>2025-07-06T07:58:46Z</time>
      </trkpt>
      <trkpt lat="46.309966910630465" lon="8.230395829305053">
        <ele>1973.05</ele>
        <time>2025-07-06T07:58:55Z</time>
      </trkpt>
      <trkpt lat="46.309939082711935" lon="8.230334222316742">
        <ele>1973.4000000000001</ele>
        <time>2025-07-06T08:03:21Z</time>
      </trkpt>
      <trkpt lat="46.309968251734972" lon="8.230199022218585">
        <ele>1975.0699999999999</ele>
        <time>2025-07-06T08:03:40Z</time>
      </trkpt>
      <trkpt lat="46.309955678880215" lon="8.230059128254652">
        <ele>1975.6400000000001</ele>
        <time>2025-07-06T08:03:52Z</time>
      </trkpt>
      <trkpt lat="46.30998719483614" lon="8.229927532374859">
        <ele>1976.72</ele>
        <time>2025-07-06T08:04:05Z</time>
      </trkpt>
      <trkpt lat="46.310026338323951" lon="8.229835666716099">
        <ele>1979.1600000000001</ele>
        <time>2025-07-06T08:04:26Z</time>
      </trkpt>
      <trkpt lat="46.310011753812432" lon="8.22972628287971">
        <ele>1982.1700000000001</ele>
        <time>2025-07-06T08:04:46Z</time>
      </trkpt>
      <trkpt lat="46.310042850673199" lon="8.229600638151169">
        <ele>1985.5899999999999</ele>
        <time>2025-07-06T08:05:14Z</time>
      </trkpt>
      <trkpt lat="46.310013514012098" lon="8.229480190202594">
        <ele>1988.5999999999999</ele>
        <time>2025-07-06T08:05:37Z</time>
      </trkpt>
      <trkpt lat="46.309998761862516" lon="8.229341302067041">
        <ele>1991.8199999999999</ele>
        <time>2025-07-06T08:06:02Z</time>
      </trkpt>
      <trkpt lat="46.309958612546325" lon="8.229205096140504">
        <ele>1994.6500000000001</ele>
        <time>2025-07-06T08:06:23Z</time>
      </trkpt>
      <trkpt lat="46.309933047741652" lon="8.229059921577573">
        <ele>1997.4000000000001</ele>
        <time>2025-07-06T08:06:43Z</time>
      </trkpt>
      <trkpt lat="46.30989876575768" lon="8.228921536356211">
        <ele>2000.3</ele>
        <time>2025-07-06T08:07:04Z</time>
      </trkpt>
      <trkpt lat="46.309868507087231" lon="8.228785078972578">
        <ele>2002.46</ele>
        <time>2025-07-06T08:07:24Z</time>
      </trkpt>
      <trkpt lat="46.309842355549335" lon="8.228665217757225">
        <ele>2005.5</ele>
        <time>2025-07-06T08:07:47Z</time>
      </trkpt>
      <trkpt lat="46.309829195961356" lon="8.228525156155229">
        <ele>2009.3399999999999</ele>
        <time>2025-07-06T08:08:18Z</time>
      </trkpt>
      <trkpt lat="46.309840092435479" lon="8.228398086503148">
        <ele>2012.72</ele>
        <time>2025-07-06T08:08:49Z</time>
      </trkpt>
      <trkpt lat="46.309775887057185" lon="8.228306975215673">
        <ele>2015.01</ele>
        <time>2025-07-06T08:09:05Z</time>
      </trkpt>
      <trkpt lat="46.309714196249843" lon="8.228213265538216">
        <ele>2018.1300000000001</ele>
        <time>2025-07-06T08:09:32Z</time>
      </trkpt>
      <trkpt lat="46.309637082740664" lon="8.228138079866767">
        <ele>2020.1099999999999</ele>
        <time>2025-07-06T08:09:56Z</time>
      </trkpt>
      <trkpt lat="46.309646219015121" lon="8.228018553927541">
        <ele>2023.3199999999999</ele>
        <time>2025-07-06T08:10:27Z</time>
      </trkpt>
      <trkpt lat="46.309693157672882" lon="8.227899111807346">
        <ele>2027.1900000000001</ele>
        <time>2025-07-06T08:10:55Z</time>
      </trkpt>
      <trkpt lat="46.309694163501263" lon="8.227766342461109">
        <ele>2030.79</ele>
        <time>2025-07-06T08:11:17Z</time>
      </trkpt>
      <trkpt lat="46.309759709984064" lon="8.227708339691162">
        <ele>2032.98</ele>
        <time>2025-07-06T08:11:29Z</time>
      </trkpt>
      <trkpt lat="46.309834728017449" lon="8.22763835079968">
        <ele>2036.5</ele>
        <time>2025-07-06T08:11:53Z</time>
      </trkpt>
      <trkpt lat="46.309910584241152" lon="8.227619910612702">
        <ele>2039.26</ele>
        <time>2025-07-06T08:12:18Z</time>
      </trkpt>
      <trkpt lat="46.309888958930969" lon="8.22750155813992">
        <ele>2042.21</ele>
        <time>2025-07-06T08:12:40Z</time>
      </trkpt>
      <trkpt lat="46.309913014993072" lon="8.227393263950944">
        <ele>2046.8699999999999</ele>
        <time>2025-07-06T08:13:18Z</time>
      </trkpt>
      <trkpt lat="46.309991972520947" lon="8.227314557880163">
        <ele>2050.7399999999998</ele>
        <time>2025-07-06T08:13:48Z</time>
      </trkpt>
      <trkpt lat="46.310047879815102" lon="8.227269379422069">
        <ele>2054.8299999999999</ele>
        <time>2025-07-06T08:14:21Z</time>
      </trkpt>
      <trkpt lat="46.310085766017437" lon="8.227216154336929">
        <ele>2058.23</ele>
        <time>2025-07-06T08:14:43Z</time>
      </trkpt>
      <trkpt lat="46.310149049386382" lon="8.227127138525248">
        <ele>2063.1399999999999</ele>
        <time>2025-07-06T08:15:21Z</time>
      </trkpt>
      <trkpt lat="46.310221720486879" lon="8.227053880691528">
        <ele>2067.4899999999998</ele>
        <time>2025-07-06T08:15:59Z</time>
      </trkpt>
      <trkpt lat="46.310283076018095" lon="8.226955141872168">
        <ele>2072.1599999999999</ele>
        <time>2025-07-06T08:16:41Z</time>
      </trkpt>
      <trkpt lat="46.310375947505236" lon="8.226906694471836">
        <ele>2077.5700000000002</ele>
        <time>2025-07-06T08:17:23Z</time>
      </trkpt>
      <trkpt lat="46.310461442917585" lon="8.226833771914244">
        <ele>2082.0700000000002</ele>
        <time>2025-07-06T08:18:05Z</time>
      </trkpt>
      <trkpt lat="46.310524391010404" lon="8.226748527958989">
        <ele>2086.46</ele>
        <time>2025-07-06T08:18:46Z</time>
      </trkpt>
      <trkpt lat="46.310605360195041" lon="8.226666804403067">
        <ele>2090.8099999999999</ele>
        <time>2025-07-06T08:19:23Z</time>
      </trkpt>
      <trkpt lat="46.310682138428092" lon="8.226580051705241">
        <ele>2096.5100000000002</ele>
        <time>2025-07-06T08:20:21Z</time>
      </trkpt>
      <trkpt lat="46.310733770951629" lon="8.226464884355664">
        <ele>2100.4000000000001</ele>
        <time>2025-07-06T08:21:18Z</time>
      </trkpt>
      <trkpt lat="46.310808537527919" lon="8.226412078365684">
        <ele>2104.5700000000002</ele>
        <time>2025-07-06T08:21:49Z</time>
      </trkpt>
      <trkpt lat="46.310856230556965" lon="8.226342173293233">
        <ele>2109.1100000000001</ele>
        <time>2025-07-06T08:22:24Z</time>
      </trkpt>
      <trkpt lat="46.310887411236763" lon="8.226229771971703">
        <ele>2111.4200000000001</ele>
        <time>2025-07-06T08:22:46Z</time>
      </trkpt>
      <trkpt lat="46.31084181368351" lon="8.226122315973043">
        <ele>2113.3499999999999</ele>
        <time>2025-07-06T08:23:12Z</time>
      </trkpt>
      <trkpt lat="46.310820607468486" lon="8.225993067026138">
        <ele>2116.3200000000002</ele>
        <time>2025-07-06T08:23:45Z</time>
      </trkpt>
      <trkpt lat="46.310846507549286" lon="8.225863734260202">
        <ele>2120.4299999999998</ele>
        <time>2025-07-06T08:24:38Z</time>
      </trkpt>
      <trkpt lat="46.310906773433089" lon="8.225760720670223">
        <ele>2124.9299999999998</ele>
        <time>2025-07-06T08:25:21Z</time>
      </trkpt>
      <trkpt lat="46.310920100659132" lon="8.225638261064887">
        <ele>2129.29</ele>
        <time>2025-07-06T08:25:46Z</time>
      </trkpt>
      <trkpt lat="46.310993861407042" lon="8.225524518638849">
        <ele>2133.3400000000001</ele>
        <time>2025-07-06T08:26:19Z</time>
      </trkpt>
      <trkpt lat="46.311026215553284" lon="8.225517896935344">
        <ele>2135</ele>
        <time>2025-07-06T08:27:07Z</time>
      </trkpt>
      <trkpt lat="46.311058653518558" lon="8.225541617721319">
        <ele>2136.0599999999999</ele>
        <time>2025-07-06T08:29:28Z</time>
      </trkpt>
      <trkpt lat="46.311036441475153" lon="8.225421840324998">
        <ele>2139</ele>
        <time>2025-07-06T08:29:59Z</time>
      </trkpt>
      <trkpt lat="46.310995286330581" lon="8.225317988544703">
        <ele>2142.6399999999999</ele>
        <time>2025-07-06T08:30:44Z</time>
      </trkpt>
      <trkpt lat="46.310963686555624" lon="8.225173316895962">
        <ele>2149.8400000000001</ele>
        <time>2025-07-06T08:31:52Z</time>
      </trkpt>
      <trkpt lat="46.31094734184444" lon="8.225053707137704">
        <ele>2156.3400000000001</ele>
        <time>2025-07-06T08:33:07Z</time>
      </trkpt>
      <trkpt lat="46.31101481616497" lon="8.224990759044886">
        <ele>2160.7199999999998</ele>
        <time>2025-07-06T08:33:50Z</time>
      </trkpt>
      <trkpt lat="46.311069298535585" lon="8.224915992468596">
        <ele>2165.8200000000002</ele>
        <time>2025-07-06T08:35:01Z</time>
      </trkpt>
      <trkpt lat="46.311130318790674" lon="8.224922195076942">
        <ele>2169.04</ele>
        <time>2025-07-06T08:35:46Z</time>
      </trkpt>
      <trkpt lat="46.311104586347938" lon="8.224829994142056">
        <ele>2172.02</ele>
        <time>2025-07-06T08:36:51Z</time>
      </trkpt>
      <trkpt lat="46.311110872775316" lon="8.224702421575785">
        <ele>2173.5300000000002</ele>
        <time>2025-07-06T08:37:18Z</time>
      </trkpt>
      <trkpt lat="46.31107927300036" lon="8.22459714487195">
        <ele>2175.46</ele>
        <time>2025-07-06T08:37:43Z</time>
      </trkpt>
      <trkpt lat="46.311114644631743" lon="8.224504524841905">
        <ele>2180.0999999999999</ele>
        <time>2025-07-06T08:38:41Z</time>
      </trkpt>
      <trkpt lat="46.311125541105866" lon="8.224428417161107">
        <ele>2183.0700000000002</ele>
        <time>2025-07-06T08:39:12Z</time>
      </trkpt>
      <trkpt lat="46.311064939945936" lon="8.22440754622221">
        <ele>2187.1399999999999</ele>
        <time>2025-07-06T08:40:07Z</time>
      </trkpt>
      <trkpt lat="46.310957483947277" lon="8.224360439926386">
        <ele>2192.1399999999999</ele>
        <time>2025-07-06T08:43:20Z</time>
      </trkpt>
      <trkpt lat="46.311002830043435" lon="8.224254911765456">
        <ele>2196</ele>
        <time>2025-07-06T08:44:14Z</time>
      </trkpt>
      <trkpt lat="46.311019426211715" lon="8.224220294505358">
        <ele>2198.9499999999998</ele>
        <time>2025-07-06T08:45:38Z</time>
      </trkpt>
      <trkpt lat="46.310997381806374" lon="8.224169835448265">
        <ele>2201.6999999999998</ele>
        <time>2025-07-06T08:46:22Z</time>
      </trkpt>
      <trkpt lat="46.310954047366977" lon="8.224109821021557">
        <ele>2207.9299999999998</ele>
        <time>2025-07-06T08:47:11Z</time>
      </trkpt>
      <trkpt lat="46.31095371209085" lon="8.223983254283667">
        <ele>2212.98</ele>
        <time>2025-07-06T08:48:31Z</time>
      </trkpt>
      <trkpt lat="46.310934014618397" lon="8.223890047520399">
        <ele>2216.3099999999999</ele>
        <time>2025-07-06T08:49:07Z</time>
      </trkpt>
      <trkpt lat="46.310953460633755" lon="8.223796002566814">
        <ele>2218.0599999999999</ele>
        <time>2025-07-06T08:49:51Z</time>
      </trkpt>
      <trkpt lat="46.310950694605708" lon="8.223748477175832">
        <ele>2220.6100000000001</ele>
        <time>2025-07-06T08:50:53Z</time>
      </trkpt>
      <trkpt lat="46.311009116470814" lon="8.223696341738105">
        <ele>2221.3099999999999</ele>
        <time>2025-07-06T08:51:19Z</time>
      </trkpt>
      <trkpt lat="46.310994364321232" lon="8.22366826236248">
        <ele>2222.4000000000001</ele>
        <time>2025-07-06T08:51:48Z</time>
      </trkpt>
      <trkpt lat="46.310962680727243" lon="8.223656108602881">
        <ele>2224.5999999999999</ele>
        <time>2025-07-06T08:52:29Z</time>
      </trkpt>
      <trkpt lat="46.310984389856458" lon="8.223607745021582">
        <ele>2226.1700000000001</ele>
        <time>2025-07-06T08:53:08Z</time>
      </trkpt>
      <trkpt lat="46.310970392078161" lon="8.223588047549129">
        <ele>2228.48</ele>
        <time>2025-07-06T08:54:00Z</time>
      </trkpt>
      <trkpt lat="46.310946838930249" lon="8.223548820242286">
        <ele>2230.9000000000001</ele>
        <time>2025-07-06T08:54:51Z</time>
      </trkpt>
      <trkpt lat="46.310886656865478" lon="8.223599279299378">
        <ele>2234.1900000000001</ele>
        <time>2025-07-06T08:55:16Z</time>
      </trkpt>
      <trkpt lat="46.310841394588351" lon="8.223568517714739">
        <ele>2242.9299999999998</ele>
        <time>2025-07-06T08:56:56Z</time>
      </trkpt>
      <trkpt lat="46.310789594426751" lon="8.223490817472339">
        <ele>2250.3600000000001</ele>
        <time>2025-07-06T08:59:38Z</time>
      </trkpt>
      <trkpt lat="46.310832174494863" lon="8.223507916554809">
        <ele>2247.3800000000001</ele>
        <time>2025-07-06T09:02:42Z</time>
      </trkpt>
      <trkpt lat="46.310850279405713" lon="8.223616797477007">
        <ele>2242.5700000000002</ele>
        <time>2025-07-06T09:03:43Z</time>
      </trkpt>
      <trkpt lat="46.310920100659132" lon="8.223635070025921">
        <ele>2238.29</ele>
        <time>2025-07-06T09:04:53Z</time>
      </trkpt>
      <trkpt lat="46.310966452583671" lon="8.223566757515073">
        <ele>2233.77</ele>
        <time>2025-07-06T09:06:06Z</time>
      </trkpt>
      <trkpt lat="46.310958573594689" lon="8.22368728928268">
        <ele>2231.6999999999998</ele>
        <time>2025-07-06T09:07:16Z</time>
      </trkpt>
      <trkpt lat="46.311010792851448" lon="8.223700281232595">
        <ele>2233.1700000000001</ele>
        <time>2025-07-06T09:08:06Z</time>
      </trkpt>
      <trkpt lat="46.311037112027407" lon="8.223728109151125">
        <ele>2234.73</ele>
        <time>2025-07-06T09:08:55Z</time>
      </trkpt>
      <trkpt lat="46.311061251908541" lon="8.223685948178172">
        <ele>2238.0500000000002</ele>
        <time>2025-07-06T09:09:41Z</time>
      </trkpt>
      <trkpt lat="46.311034429818392" lon="8.223559968173504">
        <ele>2241.1900000000001</ele>
        <time>2025-07-06T09:10:00Z</time>
      </trkpt>
      <trkpt lat="46.310998387634754" lon="8.223473383113742">
        <ele>2245.1799999999998</ele>
        <time>2025-07-06T09:10:30Z</time>
      </trkpt>
      <trkpt lat="46.310943569988012" lon="8.223428456112742">
        <ele>2248.0599999999999</ele>
        <time>2025-07-06T09:10:53Z</time>
      </trkpt>
      <trkpt lat="46.310955137014389" lon="8.223407166078687">
        <ele>2249.9200000000001</ele>
        <time>2025-07-06T09:11:54Z</time>
      </trkpt>
      <trkpt lat="46.310913562774658" lon="8.223326364532113">
        <ele>2253.2600000000002</ele>
        <time>2025-07-06T09:12:42Z</time>
      </trkpt>
      <trkpt lat="46.310852291062474" lon="8.223267272114754">
        <ele>2257.6700000000001</ele>
        <time>2025-07-06T09:13:20Z</time>
      </trkpt>
      <trkpt lat="46.310777524486184" lon="8.223218824714422">
        <ele>2265.1399999999999</ele>
        <time>2025-07-06T09:14:27Z</time>
      </trkpt>
      <trkpt lat="46.310773584991693" lon="8.223160654306412">
        <ele>2268.1500000000001</ele>
        <time>2025-07-06T09:15:50Z</time>
      </trkpt>
      <trkpt lat="46.310735698789358" lon="8.223041882738471">
        <ele>2271.7600000000002</ele>
        <time>2025-07-06T09:16:13Z</time>
      </trkpt>
      <trkpt lat="46.310717258602381" lon="8.222927134484053">
        <ele>2275.0999999999999</ele>
        <time>2025-07-06T09:16:38Z</time>
      </trkpt>
      <trkpt lat="46.310637127608061" lon="8.222863767296076">
        <ele>2278.8600000000001</ele>
        <time>2025-07-06T09:17:09Z</time>
      </trkpt>
      <trkpt lat="46.310585997998714" lon="8.222833257168531">
        <ele>2281.7399999999998</ele>
        <time>2025-07-06T09:18:02Z</time>
      </trkpt>
      <trkpt lat="46.310503268614411" lon="8.222801238298416">
        <ele>2286.25</ele>
        <time>2025-07-06T09:18:31Z</time>
      </trkpt>
      <trkpt lat="46.310502430424094" lon="8.222702080383897">
        <ele>2289.6999999999998</ele>
        <time>2025-07-06T09:18:59Z</time>
      </trkpt>
      <trkpt lat="46.310470746830106" lon="8.222614824771881">
        <ele>2294.6300000000001</ele>
        <time>2025-07-06T09:19:49Z</time>
      </trkpt>
      <trkpt lat="46.310446271672845" lon="8.222514493390918">
        <ele>2298.8099999999999</ele>
        <time>2025-07-06T09:20:20Z</time>
      </trkpt>
      <trkpt lat="46.310433028265834" lon="8.222407288849354">
        <ele>2302.0799999999999</ele>
        <time>2025-07-06T09:20:52Z</time>
      </trkpt>
      <trkpt lat="46.310447528958321" lon="8.222300168126822">
        <ele>2305.6100000000001</ele>
        <time>2025-07-06T09:21:30Z</time>
      </trkpt>
      <trkpt lat="46.31039229221642" lon="8.222219198942184">
        <ele>2309.1199999999999</ele>
        <time>2025-07-06T09:21:58Z</time>
      </trkpt>
      <trkpt lat="46.310419030487537" lon="8.222127836197615">
        <ele>2311.4400000000001</ele>
        <time>2025-07-06T09:22:35Z</time>
      </trkpt>
      <trkpt lat="46.310473596677184" lon="8.222135799005628">
        <ele>2314.9099999999999</ele>
        <time>2025-07-06T09:23:00Z</time>
      </trkpt>
      <trkpt lat="46.310442248359323" lon="8.222088608890772">
        <ele>2319.6399999999999</ele>
        <time>2025-07-06T09:23:48Z</time>
      </trkpt>
      <trkpt lat="46.310439230874181" lon="8.222091794013977">
        <ele>2323.27</ele>
        <time>2025-07-06T09:25:27Z</time>
      </trkpt>
      <trkpt lat="46.310420203953981" lon="8.222130769863725">
        <ele>2327.1399999999999</ele>
        <time>2025-07-06T09:26:59Z</time>
      </trkpt>
      <trkpt lat="46.310413246974349" lon="8.222031779587269">
        <ele>2329.8899999999999</ele>
        <time>2025-07-06T09:27:29Z</time>
      </trkpt>
      <trkpt lat="46.310343760997057" lon="8.221929436549544">
        <ele>2331.3899999999999</ele>
        <time>2025-07-06T09:27:45Z</time>
      </trkpt>
      <trkpt lat="46.310300594195724" lon="8.221818879246712">
        <ele>2332.9699999999998</ele>
        <time>2025-07-06T09:28:01Z</time>
      </trkpt>
      <trkpt lat="46.310267904773355" lon="8.221704130992293">
        <ele>2338.7199999999998</ele>
        <time>2025-07-06T09:28:36Z</time>
      </trkpt>
      <trkpt lat="46.310231108218431" lon="8.221640260890126">
        <ele>2342.77</ele>
        <time>2025-07-06T09:29:15Z</time>
      </trkpt>
      <trkpt lat="46.310190875083208" lon="8.221524506807327">
        <ele>2347.9099999999999</ele>
        <time>2025-07-06T09:29:45Z</time>
      </trkpt>
      <trkpt lat="46.310199676081538" lon="8.221404897049069">
        <ele>2352.3899999999999</ele>
        <time>2025-07-06T09:30:16Z</time>
      </trkpt>
      <trkpt lat="46.310261785984039" lon="8.221291992813349">
        <ele>2353.8800000000001</ele>
        <time>2025-07-06T09:30:49Z</time>
      </trkpt>
      <trkpt lat="46.310329930856824" lon="8.221203899011016">
        <ele>2356.6300000000001</ele>
        <time>2025-07-06T09:31:07Z</time>
      </trkpt>
      <trkpt lat="46.310391705483198" lon="8.221112955361605">
        <ele>2358.1300000000001</ele>
        <time>2025-07-06T09:31:25Z</time>
      </trkpt>
      <trkpt lat="46.310449205338955" lon="8.221033494919539">
        <ele>2361.3000000000002</ele>
        <time>2025-07-06T09:31:49Z</time>
      </trkpt>
      <trkpt lat="46.31052321754396" lon="8.221108596771956">
        <ele>2364.6599999999999</ele>
        <time>2025-07-06T09:32:12Z</time>
      </trkpt>
      <trkpt lat="46.310590105131269" lon="8.221187135204673">
        <ele>2368.0300000000002</ele>
        <time>2025-07-06T09:32:36Z</time>
      </trkpt>
      <trkpt lat="46.31067082285881" lon="8.221206832677126">
        <ele>2372.79</ele>
        <time>2025-07-06T09:33:10Z</time>
      </trkpt>
      <trkpt lat="46.310667637735605" lon="8.221084624528885">
        <ele>2376.75</ele>
        <time>2025-07-06T09:33:41Z</time>
      </trkpt>
      <trkpt lat="46.31071918644011" lon="8.22098127566278">
        <ele>2381.8299999999999</ele>
        <time>2025-07-06T09:34:12Z</time>
      </trkpt>
      <trkpt lat="46.310771405696869" lon="8.220877759158611">
        <ele>2386.1300000000001</ele>
        <time>2025-07-06T09:34:43Z</time>
      </trkpt>
      <trkpt lat="46.310755899176002" lon="8.220751695334911">
        <ele>2389.27</ele>
        <time>2025-07-06T09:35:15Z</time>
      </trkpt>
      <trkpt lat="46.310788253322244" lon="8.220641389489174">
        <ele>2394.5700000000002</ele>
        <time>2025-07-06T09:35:45Z</time>
      </trkpt>
      <trkpt lat="46.310787247493863" lon="8.22052245028317">
        <ele>2398.3600000000001</ele>
        <time>2025-07-06T09:36:17Z</time>
      </trkpt>
      <trkpt lat="46.310835694894195" lon="8.22045455686748">
        <ele>2401.5700000000002</ele>
        <time>2025-07-06T09:36:39Z</time>
      </trkpt>
      <trkpt lat="46.310924543067813" lon="8.22041155770421">
        <ele>2406.5999999999999</ele>
        <time>2025-07-06T09:37:10Z</time>
      </trkpt>
      <trkpt lat="46.310928650200367" lon="8.220364535227418">
        <ele>2409.04</ele>
        <time>2025-07-06T09:38:21Z</time>
      </trkpt>
      <trkpt lat="46.310915909707546" lon="8.220231849700213">
        <ele>2411.6300000000001</ele>
        <time>2025-07-06T09:38:41Z</time>
      </trkpt>
      <trkpt lat="46.310895960777998" lon="8.22009053081274">
        <ele>2415.4099999999999</ele>
        <time>2025-07-06T09:40:01Z</time>
      </trkpt>
      <trkpt lat="46.310913730412722" lon="8.219991708174348">
        <ele>2419.6799999999998</ele>
        <time>2025-07-06T09:40:20Z</time>
      </trkpt>
      <trkpt lat="46.310870228335261" lon="8.220001766458154">
        <ele>2419.5599999999999</ele>
        <time>2025-07-06T09:41:02Z</time>
      </trkpt>
      <trkpt lat="46.310810884460807" lon="8.220031689852476">
        <ele>2418.1300000000001</ele>
        <time>2025-07-06T09:41:18Z</time>
      </trkpt>
      <trkpt lat="46.310745589435101" lon="8.219981817528606">
        <ele>2420.1500000000001</ele>
        <time>2025-07-06T09:41:37Z</time>
      </trkpt>
      <trkpt lat="46.310778949409723" lon="8.219959521666169">
        <ele>2420.71</ele>
        <time>2025-07-06T09:42:51Z</time>
      </trkpt>
      <trkpt lat="46.310839718207717" lon="8.219980644062161">
        <ele>2419.4899999999998</ele>
        <time>2025-07-06T09:43:06Z</time>
      </trkpt>
      <trkpt lat="46.310893027111888" lon="8.219993552193046">
        <ele>2420.5900000000001</ele>
        <time>2025-07-06T09:43:58Z</time>
      </trkpt>
      <trkpt lat="46.310917586088181" lon="8.219867656007409">
        <ele>2423.8000000000002</ele>
        <time>2025-07-06T09:44:27Z</time>
      </trkpt>
      <trkpt lat="46.310937451198697" lon="8.219807390123606">
        <ele>2424.4000000000001</ele>
        <time>2025-07-06T09:45:09Z</time>
      </trkpt>
      <trkpt lat="46.310921190306544" lon="8.219686355441809">
        <ele>2423.9299999999998</ele>
        <time>2025-07-06T09:45:22Z</time>
      </trkpt>
      <trkpt lat="46.310880454257131" lon="8.219562219455838">
        <ele>2424.5599999999999</ele>
        <time>2025-07-06T09:45:36Z</time>
      </trkpt>
      <trkpt lat="46.310852123424411" lon="8.219434227794409">
        <ele>2424.3499999999999</ele>
        <time>2025-07-06T09:45:50Z</time>
      </trkpt>
      <trkpt lat="46.310849944129586" lon="8.219511425122619">
        <ele>2425.6900000000001</ele>
        <time>2025-07-06T09:46:31Z</time>
      </trkpt>
      <trkpt lat="46.310872491449118" lon="8.219637656584382">
        <ele>2425.79</ele>
        <time>2025-07-06T09:46:44Z</time>
      </trkpt>
      <trkpt lat="46.310914652422071" lon="8.219752656295896">
        <ele>2425.6300000000001</ele>
        <time>2025-07-06T09:46:58Z</time>
      </trkpt>
      <trkpt lat="46.31091607734561" lon="8.219867656007409">
        <ele>2425.1300000000001</ele>
        <time>2025-07-06T09:47:15Z</time>
      </trkpt>
      <trkpt lat="46.310924543067813" lon="8.219991372898221">
        <ele>2423.8400000000001</ele>
        <time>2025-07-06T09:47:34Z</time>
      </trkpt>
      <trkpt lat="46.310874419286847" lon="8.219973603263497">
        <ele>2423.8800000000001</ele>
        <time>2025-07-06T09:48:17Z</time>
      </trkpt>
      <trkpt lat="46.310862265527248" lon="8.219862040132284">
        <ele>2423.5300000000002</ele>
        <time>2025-07-06T09:48:44Z</time>
      </trkpt>
      <trkpt lat="46.31086771376431" lon="8.220049710944295">
        <ele>2422.4499999999998</ele>
        <time>2025-07-06T09:49:04Z</time>
      </trkpt>
      <trkpt lat="46.310875173658133" lon="8.22006169706583">
        <ele>2428.9299999999998</ele>
        <time>2025-07-06T10:16:07Z</time>
      </trkpt>
      <trkpt lat="46.31085354834795" lon="8.2201271597296">
        <ele>2430.9400000000001</ele>
        <time>2025-07-06T10:23:24Z</time>
      </trkpt>
      <trkpt lat="46.310887662693858" lon="8.22025959379971">
        <ele>2427.9899999999998</ele>
        <time>2025-07-06T10:23:35Z</time>
      </trkpt>
      <trkpt lat="46.310903420671821" lon="8.220385322347283">
        <ele>2426.3099999999999</ele>
        <time>2025-07-06T10:23:45Z</time>
      </trkpt>
      <trkpt lat="46.310870815068483" lon="8.220488503575325">
        <ele>2423.1900000000001</ele>
        <time>2025-07-06T10:23:58Z</time>
      </trkpt>
      <trkpt lat="46.310786325484514" lon="8.22051658295095">
        <ele>2419.5100000000002</ele>
        <time>2025-07-06T10:24:23Z</time>
      </trkpt>
      <trkpt lat="46.310737123712897" lon="8.220587074756622">
        <ele>2416.6999999999998</ele>
        <time>2025-07-06T10:24:50Z</time>
      </trkpt>
      <trkpt lat="46.310721365734935" lon="8.220694530755281">
        <ele>2411.0599999999999</ele>
        <time>2025-07-06T10:25:31Z</time>
      </trkpt>
      <trkpt lat="46.31070694886148" lon="8.220809698104858">
        <ele>2407.6500000000001</ele>
        <time>2025-07-06T10:25:52Z</time>
      </trkpt>
      <trkpt lat="46.310691945254803" lon="8.220933666452766">
        <ele>2404.5799999999999</ele>
        <time>2025-07-06T10:26:23Z</time>
      </trkpt>
      <trkpt lat="46.310667051002383" lon="8.221058137714863">
        <ele>2399.1700000000001</ele>
        <time>2025-07-06T10:27:09Z</time>
      </trkpt>
      <trkpt lat="46.310652885586023" lon="8.221179340034723">
        <ele>2395.25</ele>
        <time>2025-07-06T10:27:29Z</time>
      </trkpt>
      <trkpt lat="46.310662776231766" lon="8.221243293955922">
        <ele>2393.8499999999999</ele>
        <time>2025-07-06T10:28:54Z</time>
      </trkpt>
      <trkpt lat="46.31058432161808" lon="8.221275731921196">
        <ele>2390.1100000000001</ele>
        <time>2025-07-06T10:29:09Z</time>
      </trkpt>
      <trkpt lat="46.310509638860822" lon="8.221206078305841">
        <ele>2386.5900000000001</ele>
        <time>2025-07-06T10:29:22Z</time>
      </trkpt>
      <trkpt lat="46.310436464846134" lon="8.221129216253758">
        <ele>2383.71</ele>
        <time>2025-07-06T10:29:35Z</time>
      </trkpt>
      <trkpt lat="46.310357423499227" lon="8.221122678369284">
        <ele>2379.77</ele>
        <time>2025-07-06T10:29:53Z</time>
      </trkpt>
      <trkpt lat="46.310309814289212" lon="8.221236588433385">
        <ele>2377.6300000000001</ele>
        <time>2025-07-06T10:30:07Z</time>
      </trkpt>
      <trkpt lat="46.310237310826778" lon="8.221332980319858">
        <ele>2375.5100000000002</ele>
        <time>2025-07-06T10:30:18Z</time>
      </trkpt>
      <trkpt lat="46.310166232287884" lon="8.221417972818017">
        <ele>2373.5700000000002</ele>
        <time>2025-07-06T10:30:32Z</time>
      </trkpt>
      <trkpt lat="46.310144523158669" lon="8.221527943387628">
        <ele>2369.8499999999999</ele>
        <time>2025-07-06T10:31:06Z</time>
      </trkpt>
      <trkpt lat="46.310177631676197" lon="8.221630956977606">
        <ele>2365.8200000000002</ele>
        <time>2025-07-06T10:31:32Z</time>
      </trkpt>
      <trkpt lat="46.310229515656829" lon="8.221726007759571">
        <ele>2361.23</ele>
        <time>2025-07-06T10:31:59Z</time>
      </trkpt>
      <trkpt lat="46.31027452647686" lon="8.221809323877096">
        <ele>2357.5599999999999</ele>
        <time>2025-07-06T10:32:33Z</time>
      </trkpt>
      <trkpt lat="46.31031165830791" lon="8.221908900886774">
        <ele>2354.4299999999998</ele>
        <time>2025-07-06T10:32:49Z</time>
      </trkpt>
      <trkpt lat="46.310374019667506" lon="8.221992552280426">
        <ele>2353.6500000000001</ele>
        <time>2025-07-06T10:33:12Z</time>
      </trkpt>
      <trkpt lat="46.310403607785702" lon="8.22208802215755">
        <ele>2351.4699999999998</ele>
        <time>2025-07-06T10:33:46Z</time>
      </trkpt>
      <trkpt lat="46.310447193682194" lon="8.22209338657558">
        <ele>2347.3800000000001</ele>
        <time>2025-07-06T10:34:44Z</time>
      </trkpt>
      <trkpt lat="46.310444008558989" lon="8.222106294706464">
        <ele>2347.1599999999999</ele>
        <time>2025-07-06T10:35:38Z</time>
      </trkpt>
      <trkpt lat="46.310424478724599" lon="8.222174104303122">
        <ele>2345.2600000000002</ele>
        <time>2025-07-06T10:36:07Z</time>
      </trkpt>
      <trkpt lat="46.31042892113328" lon="8.222220959141851">
        <ele>2343.54</ele>
        <time>2025-07-06T10:36:26Z</time>
      </trkpt>
      <trkpt lat="46.310420371592045" lon="8.222309136763215">
        <ele>2339.7199999999998</ele>
        <time>2025-07-06T10:36:56Z</time>
      </trkpt>
      <trkpt lat="46.310419533401728" lon="8.222408378496766">
        <ele>2335.3299999999999</ele>
        <time>2025-07-06T10:37:17Z</time>
      </trkpt>
      <trkpt lat="46.310399081557989" lon="8.222493203356862">
        <ele>2331.9200000000001</ele>
        <time>2025-07-06T10:37:32Z</time>
      </trkpt>
      <trkpt lat="46.31041182205081" lon="8.222517427057028">
        <ele>2330.6599999999999</ele>
        <time>2025-07-06T10:37:46Z</time>
      </trkpt>
      <trkpt lat="46.3104382250458" lon="8.222547182813287">
        <ele>2328.4400000000001</ele>
        <time>2025-07-06T10:37:57Z</time>
      </trkpt>
      <trkpt lat="46.310419449582696" lon="8.222643658518791">
        <ele>2323.3699999999999</ele>
        <time>2025-07-06T10:38:14Z</time>
      </trkpt>
      <trkpt lat="46.310414085164666" lon="8.222741056233645">
        <ele>2319.6799999999998</ele>
        <time>2025-07-06T10:38:33Z</time>
      </trkpt>
      <trkpt lat="46.310443254187703" lon="8.222836190834642">
        <ele>2315.4099999999999</ele>
        <time>2025-07-06T10:38:54Z</time>
      </trkpt>
      <trkpt lat="46.310466304421425" lon="8.222909532487392">
        <ele>2311.1399999999999</ele>
        <time>2025-07-06T10:39:23Z</time>
      </trkpt>
      <trkpt lat="46.310502598062158" lon="8.222967116162181">
        <ele>2306.8800000000001</ele>
        <time>2025-07-06T10:39:42Z</time>
      </trkpt>
      <trkpt lat="46.310513829812407" lon="8.223037691786885">
        <ele>2303.8400000000001</ele>
        <time>2025-07-06T10:40:02Z</time>
      </trkpt>
      <trkpt lat="46.31061801686883" lon="8.223028304055333">
        <ele>2300.46</ele>
        <time>2025-07-06T10:40:23Z</time>
      </trkpt>
      <trkpt lat="46.310680797323585" lon="8.223052527755499">
        <ele>2296.4400000000001</ele>
        <time>2025-07-06T10:40:49Z</time>
      </trkpt>
      <trkpt lat="46.310703009366989" lon="8.223140705376864">
        <ele>2294.1500000000001</ele>
        <time>2025-07-06T10:41:18Z</time>
      </trkpt>
      <trkpt lat="46.310723964124918" lon="8.223264757543802">
        <ele>2290.5300000000002</ele>
        <time>2025-07-06T10:41:37Z</time>
      </trkpt>
      <trkpt lat="46.310703512281179" lon="8.223375314846635">
        <ele>2287.4000000000001</ele>
        <time>2025-07-06T10:41:55Z</time>
      </trkpt>
      <trkpt lat="46.310726143419743" lon="8.223394090309739">
        <ele>2284.6700000000001</ele>
        <time>2025-07-06T10:42:09Z</time>
      </trkpt>
      <trkpt lat="46.310797724872828" lon="8.223379170522094">
        <ele>2282.5599999999999</ele>
        <time>2025-07-06T10:42:32Z</time>
      </trkpt>
      <trkpt lat="46.310836616903543" lon="8.223368357867003">
        <ele>2279.9400000000001</ele>
        <time>2025-07-06T10:43:03Z</time>
      </trkpt>
      <trkpt lat="46.310828989371657" lon="8.223382690921426">
        <ele>2278.1500000000001</ele>
        <time>2025-07-06T10:43:24Z</time>
      </trkpt>
      <trkpt lat="46.310846591368318" lon="8.223402053117752">
        <ele>2277</ele>
        <time>2025-07-06T10:43:39Z</time>
      </trkpt>
      <trkpt lat="46.310896715149283" lon="8.22350213304162">
        <ele>2273.3000000000002</ele>
        <time>2025-07-06T10:44:08Z</time>
      </trkpt>
      <trkpt lat="46.310902833938599" lon="8.223570697009563">
        <ele>2270.3000000000002</ele>
        <time>2025-07-06T10:44:45Z</time>
      </trkpt>
      <trkpt lat="46.310950191691518" lon="8.223573882132769">
        <ele>2268.6100000000001</ele>
        <time>2025-07-06T10:45:08Z</time>
      </trkpt>
      <trkpt lat="46.310939295217395" lon="8.223496349528432">
        <ele>2266.8299999999999</ele>
        <time>2025-07-06T10:45:35Z</time>
      </trkpt>
      <trkpt lat="46.310958489775658" lon="8.223636243492365">
        <ele>2263.4000000000001</ele>
        <time>2025-07-06T10:45:58Z</time>
      </trkpt>
      <trkpt lat="46.310992436483502" lon="8.223775131627917">
        <ele>2259.5</ele>
        <time>2025-07-06T10:46:22Z</time>
      </trkpt>
      <trkpt lat="46.310942061245441" lon="8.223774544894695">
        <ele>2255.5700000000002</ele>
        <time>2025-07-06T10:47:14Z</time>
      </trkpt>
      <trkpt lat="46.31092244759202" lon="8.223801450803876">
        <ele>2252.5300000000002</ele>
        <time>2025-07-06T10:48:13Z</time>
      </trkpt>
      <trkpt lat="46.310948599129915" lon="8.223892729729414">
        <ele>2249.0999999999999</ele>
        <time>2025-07-06T10:48:54Z</time>
      </trkpt>
      <trkpt lat="46.310914903879166" lon="8.223915947601199">
        <ele>2246.23</ele>
        <time>2025-07-06T10:49:40Z</time>
      </trkpt>
      <trkpt lat="46.310899313539267" lon="8.22386221960187">
        <ele>2246.1399999999999</ele>
        <time>2025-07-06T10:50:12Z</time>
      </trkpt>
      <trkpt lat="46.310880873352289" lon="8.223829697817564">
        <ele>2244.6399999999999</ele>
        <time>2025-07-06T10:50:48Z</time>
      </trkpt>
      <trkpt lat="46.310891434550285" lon="8.223894657567143">
        <ele>2243.9299999999998</ele>
        <time>2025-07-06T10:51:10Z</time>
      </trkpt>
      <trkpt lat="46.310917502269149" lon="8.223992725834251">
        <ele>2240.8699999999999</ele>
        <time>2025-07-06T10:51:29Z</time>
      </trkpt>
      <trkpt lat="46.310944659635425" lon="8.224065313115716">
        <ele>2238.6999999999998</ele>
        <time>2025-07-06T10:52:05Z</time>
      </trkpt>
      <trkpt lat="46.310963099822402" lon="8.224162291735411">
        <ele>2234.2199999999998</ele>
        <time>2025-07-06T10:52:28Z</time>
      </trkpt>
      <trkpt lat="46.311026634648442" lon="8.224192466586828">
        <ele>2229.8499999999999</ele>
        <time>2025-07-06T10:52:55Z</time>
      </trkpt>
      <trkpt lat="46.31097081117332" lon="8.224317189306021">
        <ele>2225.8699999999999</ele>
        <time>2025-07-06T10:53:32Z</time>
      </trkpt>
      <trkpt lat="46.310961255803704" lon="8.224443756043911">
        <ele>2221.1500000000001</ele>
        <time>2025-07-06T10:53:51Z</time>
      </trkpt>
      <trkpt lat="46.310978103429079" lon="8.224534951150417">
        <ele>2216.5300000000002</ele>
        <time>2025-07-06T10:54:15Z</time>
      </trkpt>
      <trkpt lat="46.311022695153952" lon="8.22461323812604">
        <ele>2208.3499999999999</ele>
        <time>2025-07-06T10:55:37Z</time>
      </trkpt>
      <trkpt lat="46.311006685718894" lon="8.22473393753171">
        <ele>2203.1700000000001</ele>
        <time>2025-07-06T10:56:31Z</time>
      </trkpt>
      <trkpt lat="46.31103090941906" lon="8.224834688007832">
        <ele>2200.0999999999999</ele>
        <time>2025-07-06T10:57:01Z</time>
      </trkpt>
      <trkpt lat="46.311017079278827" lon="8.224961422383785">
        <ele>2198.71</ele>
        <time>2025-07-06T10:57:19Z</time>
      </trkpt>
      <trkpt lat="46.311034765094519" lon="8.225071392953396">
        <ele>2196.1399999999999</ele>
        <time>2025-07-06T10:57:47Z</time>
      </trkpt>
      <trkpt lat="46.310975505039096" lon="8.22504666633904">
        <ele>2190.9699999999998</ele>
        <time>2025-07-06T10:58:28Z</time>
      </trkpt>
      <trkpt lat="46.310925967991352" lon="8.225136855617166">
        <ele>2184.98</ele>
        <time>2025-07-06T10:59:11Z</time>
      </trkpt>
      <trkpt lat="46.310885651037097" lon="8.225226122885943">
        <ele>2180.8299999999999</ele>
        <time>2025-07-06T10:59:51Z</time>
      </trkpt>
      <trkpt lat="46.310917166993022" lon="8.225338021293283">
        <ele>2173.9400000000001</ele>
        <time>2025-07-06T11:00:42Z</time>
      </trkpt>
      <trkpt lat="46.310941055417061" lon="8.225454026833177">
        <ele>2169.0700000000002</ele>
        <time>2025-07-06T11:01:21Z</time>
      </trkpt>
      <trkpt lat="46.310973996296525" lon="8.225556872785091">
        <ele>2165.0500000000002</ele>
        <time>2025-07-06T11:01:40Z</time>
      </trkpt>
      <trkpt lat="46.310983635485172" lon="8.225658377632499">
        <ele>2161.54</ele>
        <time>2025-07-06T11:01:55Z</time>
      </trkpt>
      <trkpt lat="46.310918591916561" lon="8.225704729557037">
        <ele>2157.6399999999999</ele>
        <time>2025-07-06T11:02:15Z</time>
      </trkpt>
      <trkpt lat="46.310881208628416" lon="8.225821824744344">
        <ele>2152.8600000000001</ele>
        <time>2025-07-06T11:02:31Z</time>
      </trkpt>
      <trkpt lat="46.310846088454127" lon="8.225921066477895">
        <ele>2148.8499999999999</ele>
        <time>2025-07-06T11:02:47Z</time>
      </trkpt>
      <trkpt lat="46.310808034613729" lon="8.22600144892931">
        <ele>2145.02</ele>
        <time>2025-07-06T11:03:04Z</time>
      </trkpt>
      <trkpt lat="46.310778530314565" lon="8.226108318194747">
        <ele>2141.3600000000001</ele>
        <time>2025-07-06T11:03:21Z</time>
      </trkpt>
      <trkpt lat="46.310805436223745" lon="8.226230777800083">
        <ele>2138.29</ele>
        <time>2025-07-06T11:03:36Z</time>
      </trkpt>
      <trkpt lat="46.310829827561975" lon="8.226333372294903">
        <ele>2136.0500000000002</ele>
        <time>2025-07-06T11:04:00Z</time>
      </trkpt>
      <trkpt lat="46.310806358233094" lon="8.226350387558341">
        <ele>2136.46</ele>
        <time>2025-07-06T11:06:16Z</time>
      </trkpt>
      <trkpt lat="46.310841143131256" lon="8.226311998441815">
        <ele>2136.1199999999999</ele>
        <time>2025-07-06T11:07:14Z</time>
      </trkpt>
      <trkpt lat="46.310834605246782" lon="8.226396236568689">
        <ele>2134.8299999999999</ele>
        <time>2025-07-06T11:10:33Z</time>
      </trkpt>
      <trkpt lat="46.310786074027419" lon="8.226460190489888">
        <ele>2132.77</ele>
        <time>2025-07-06T11:12:04Z</time>
      </trkpt>
      <trkpt lat="46.310735195875168" lon="8.226540321484208">
        <ele>2127.54</ele>
        <time>2025-07-06T11:12:25Z</time>
      </trkpt>
      <trkpt lat="46.310682808980346" lon="8.226656662300229">
        <ele>2123.5300000000002</ele>
        <time>2025-07-06T11:12:39Z</time>
      </trkpt>
      <trkpt lat="46.310609048232436" lon="8.226713910698891">
        <ele>2119.3099999999999</ele>
        <time>2025-07-06T11:14:03Z</time>
      </trkpt>
      <trkpt lat="46.310556996613741" lon="8.226816672831774">
        <ele>2114.5100000000002</ele>
        <time>2025-07-06T11:14:24Z</time>
      </trkpt>
      <trkpt lat="46.310481308028102" lon="8.226889260113239">
        <ele>2109</ele>
        <time>2025-07-06T11:14:38Z</time>
      </trkpt>
      <trkpt lat="46.310420790687203" lon="8.226990681141615">
        <ele>2104.7199999999998</ele>
        <time>2025-07-06T11:14:53Z</time>
      </trkpt>
      <trkpt lat="46.310329595580697" lon="8.227032339200378">
        <ele>2100.2399999999998</ele>
        <time>2025-07-06T11:15:08Z</time>
      </trkpt>
      <trkpt lat="46.310253739356995" lon="8.227076176553965">
        <ele>2095.3400000000001</ele>
        <time>2025-07-06T11:15:20Z</time>
      </trkpt>
      <trkpt lat="46.31019439548254" lon="8.227141555398703">
        <ele>2091.02</ele>
        <time>2025-07-06T11:15:34Z</time>
      </trkpt>
      <trkpt lat="46.310141338035464" lon="8.22722059674561">
        <ele>2086.4699999999998</ele>
        <time>2025-07-06T11:15:52Z</time>
      </trkpt>
      <trkpt lat="46.310081658884883" lon="8.227306259796023">
        <ele>2082.0900000000001</ele>
        <time>2025-07-06T11:16:08Z</time>
      </trkpt>
      <trkpt lat="46.310019884258509" lon="8.22738722898066">
        <ele>2077.6199999999999</ele>
        <time>2025-07-06T11:16:23Z</time>
      </trkpt>
      <trkpt lat="46.309951571747661" lon="8.227437436580658">
        <ele>2074.02</ele>
        <time>2025-07-06T11:16:36Z</time>
      </trkpt>
      <trkpt lat="46.309886276721954" lon="8.227522429078817">
        <ele>2069.9200000000001</ele>
        <time>2025-07-06T11:16:51Z</time>
      </trkpt>
      <trkpt lat="46.309845373034477" lon="8.227610690519214">
        <ele>2066.3000000000002</ele>
        <time>2025-07-06T11:17:03Z</time>
      </trkpt>
      <trkpt lat="46.309880157932639" lon="8.227734407410026">
        <ele>2062.4200000000001</ele>
        <time>2025-07-06T11:17:14Z</time>
      </trkpt>
      <trkpt lat="46.309792399406433" lon="8.227754691615701">
        <ele>2059.1700000000001</ele>
        <time>2025-07-06T11:17:26Z</time>
      </trkpt>
      <trkpt lat="46.309713441878557" lon="8.227814789861441">
        <ele>2056.0599999999999</ele>
        <time>2025-07-06T11:17:37Z</time>
      </trkpt>
      <trkpt lat="46.309647224843502" lon="8.227897435426712">
        <ele>2052.9499999999998</ele>
        <time>2025-07-06T11:17:49Z</time>
      </trkpt>
      <trkpt lat="46.309660552069545" lon="8.228022996336222">
        <ele>2049.3000000000002</ele>
        <time>2025-07-06T11:18:01Z</time>
      </trkpt>
      <trkpt lat="46.309608584269881" lon="8.228132044896483">
        <ele>2045.6700000000001</ele>
        <time>2025-07-06T11:18:14Z</time>
      </trkpt>
      <trkpt lat="46.309627443552017" lon="8.228253163397312">
        <ele>2042.6099999999999</ele>
        <time>2025-07-06T11:18:27Z</time>
      </trkpt>
      <trkpt lat="46.309696761891246" lon="8.228326756507158">
        <ele>2040.1800000000001</ele>
        <time>2025-07-06T11:18:40Z</time>
      </trkpt>
      <trkpt lat="46.309750070795417" lon="8.228428764268756">
        <ele>2036.6900000000001</ele>
        <time>2025-07-06T11:18:54Z</time>
      </trkpt>
      <trkpt lat="46.309798769652843" lon="8.228534795343876">
        <ele>2033.0899999999999</ele>
        <time>2025-07-06T11:19:08Z</time>
      </trkpt>
      <trkpt lat="46.309826010838151" lon="8.228660859167576">
        <ele>2029.73</ele>
        <time>2025-07-06T11:19:24Z</time>
      </trkpt>
      <trkpt lat="46.309832716360688" lon="8.228807039558888">
        <ele>2026.8699999999999</ele>
        <time>2025-07-06T11:19:37Z</time>
      </trkpt>
      <trkpt lat="46.30987630225718" lon="8.228922039270401">
        <ele>2023.02</ele>
        <time>2025-07-06T11:19:53Z</time>
      </trkpt>
      <trkpt lat="46.309897927567363" lon="8.229061765596271">
        <ele>2019.6900000000001</ele>
        <time>2025-07-06T11:20:07Z</time>
      </trkpt>
      <trkpt lat="46.309920893982053" lon="8.229195456951857">
        <ele>2017.49</ele>
        <time>2025-07-06T11:20:20Z</time>
      </trkpt>
      <trkpt lat="46.309935813769698" lon="8.229323783889413">
        <ele>2015.1500000000001</ele>
        <time>2025-07-06T11:20:33Z</time>
      </trkpt>
      <trkpt lat="46.309978226199746" lon="8.229444650933147">
        <ele>2013.02</ele>
        <time>2025-07-06T11:20:45Z</time>
      </trkpt>
      <trkpt lat="46.310002030804753" lon="8.229575911536813">
        <ele>2010.28</ele>
        <time>2025-07-06T11:20:57Z</time>
      </trkpt>
      <trkpt lat="46.310025919228792" lon="8.22970331646502">
        <ele>2007.0599999999999</ele>
        <time>2025-07-06T11:21:10Z</time>
      </trkpt>
      <trkpt lat="46.309997169300914" lon="8.229826781898737">
        <ele>2003.48</ele>
        <time>2025-07-06T11:21:24Z</time>
      </trkpt>
      <trkpt lat="46.310019800439477" lon="8.22993298061192">
        <ele>1999.73</ele>
        <time>2025-07-06T11:21:37Z</time>
      </trkpt>
      <trkpt lat="46.309972861781716" lon="8.230000287294388">
        <ele>1997.8499999999999</ele>
        <time>2025-07-06T11:21:47Z</time>
      </trkpt>
      <trkpt lat="46.309888958930969" lon="8.230043454095721">
        <ele>1996.47</ele>
        <time>2025-07-06T11:21:56Z</time>
      </trkpt>
      <trkpt lat="46.309821400791407" lon="8.230112856253982">
        <ele>1995.49</ele>
        <time>2025-07-06T11:22:06Z</time>
      </trkpt>
      <trkpt lat="46.30981083959341" lon="8.230242440477014">
        <ele>1994.23</ele>
        <time>2025-07-06T11:22:17Z</time>
      </trkpt>
      <trkpt lat="46.309853587299585" lon="8.230363307520747">
        <ele>1994.1600000000001</ele>
        <time>2025-07-06T11:22:28Z</time>
      </trkpt>
      <trkpt lat="46.30992173217237" lon="8.230441762134433">
        <ele>1992.3399999999999</ele>
        <time>2025-07-06T11:23:05Z</time>
      </trkpt>
      <trkpt lat="46.309915110468864" lon="8.230454670265317">
        <ele>1991.7</ele>
        <time>2025-07-06T11:28:57Z</time>
      </trkpt>
      <trkpt lat="46.309916200116277" lon="8.230452658608556">
        <ele>1990.72</ele>
        <time>2025-07-06T11:30:50Z</time>
      </trkpt>
      <trkpt lat="46.309910584241152" lon="8.230403959751129">
        <ele>1991.77</ele>
        <time>2025-07-06T11:34:26Z</time>
      </trkpt>
      <trkpt lat="46.30992173217237" lon="8.230406390503049">
        <ele>1991.49</ele>
        <time>2025-07-06T11:35:26Z</time>
      </trkpt>
      <trkpt lat="46.309952242299914" lon="8.230328690260649">
        <ele>1992.0799999999999</ele>
        <time>2025-07-06T11:36:09Z</time>
      </trkpt>
      <trkpt lat="46.30997646600008" lon="8.230211846530438">
        <ele>1993.76</ele>
        <time>2025-07-06T11:36:20Z</time>
      </trkpt>
      <trkpt lat="46.310032038018107" lon="8.230104558169842">
        <ele>1995.25</ele>
        <time>2025-07-06T11:36:31Z</time>
      </trkpt>
      <trkpt lat="46.310092890635133" lon="8.230068432167172">
        <ele>1995.97</ele>
        <time>2025-07-06T11:36:49Z</time>
      </trkpt>
      <trkpt lat="46.31007612682879" lon="8.230114532634616">
        <ele>1994.6300000000001</ele>
        <time>2025-07-06T11:37:22Z</time>
      </trkpt>
      <trkpt lat="46.310080736875534" lon="8.230110760778189">
        <ele>1995.46</ele>
        <time>2025-07-06T11:37:55Z</time>
      </trkpt>
      <trkpt lat="46.310065733268857" lon="8.230109000578523">
        <ele>1994.8299999999999</ele>
        <time>2025-07-06T11:38:32Z</time>
      </trkpt>
      <trkpt lat="46.31004729308188" lon="8.230121405795217">
        <ele>1994.3599999999999</ele>
        <time>2025-07-06T11:39:19Z</time>
      </trkpt>
      <trkpt lat="46.310038156807423" lon="8.230133224278688">
        <ele>1993.75</ele>
        <time>2025-07-06T11:40:04Z</time>
      </trkpt>
      <trkpt lat="46.310053495690227" lon="8.230117214843631">
        <ele>1993.4100000000001</ele>
        <time>2025-07-06T11:40:45Z</time>
      </trkpt>
      <trkpt lat="46.31004880182445" lon="8.230104641988874">
        <ele>1993.3800000000001</ele>
        <time>2025-07-06T11:41:04Z</time>
      </trkpt>
      <trkpt lat="46.30997839383781" lon="8.230196088552475">
        <ele>1992.3699999999999</ele>
        <time>2025-07-06T11:41:18Z</time>
      </trkpt>
      <trkpt lat="46.30996230058372" lon="8.23032139800489">
        <ele>1990.8599999999999</ele>
        <time>2025-07-06T11:41:28Z</time>
      </trkpt>
      <trkpt lat="46.309940339997411" lon="8.230446623638272">
        <ele>1989.1099999999999</ele>
        <time>2025-07-06T11:41:36Z</time>
      </trkpt>
      <trkpt lat="46.309982668608427" lon="8.230557180941105">
        <ele>1989.05</ele>
        <time>2025-07-06T11:41:46Z</time>
      </trkpt>
      <trkpt lat="46.310020806267858" lon="8.230669498443604">
        <ele>1989.0699999999999</ele>
        <time>2025-07-06T11:41:56Z</time>
      </trkpt>
      <trkpt lat="46.310082413256168" lon="8.230784414336085">
        <ele>1988.4200000000001</ele>
        <time>2025-07-06T11:42:07Z</time>
      </trkpt>
      <trkpt lat="46.310138655826449" lon="8.23088969103992">
        <ele>1987.8099999999999</ele>
        <time>2025-07-06T11:42:16Z</time>
      </trkpt>
      <trkpt lat="46.310178888961673" lon="8.231014581397176">
        <ele>1987.24</ele>
        <time>2025-07-06T11:42:25Z</time>
      </trkpt>
      <trkpt lat="46.31022859364748" lon="8.231117259711027">
        <ele>1987.1800000000001</ele>
        <time>2025-07-06T11:42:34Z</time>
      </trkpt>
      <trkpt lat="46.310273772105575" lon="8.23123368434608">
        <ele>1986.5799999999999</ele>
        <time>2025-07-06T11:42:43Z</time>
      </trkpt>
      <trkpt lat="46.310316771268845" lon="8.23135681450367">
        <ele>1985.99</ele>
        <time>2025-07-06T11:42:52Z</time>
      </trkpt>
      <trkpt lat="46.310358764603734" lon="8.231469383463264">
        <ele>1985.76</ele>
        <time>2025-07-06T11:43:00Z</time>
      </trkpt>
      <trkpt lat="46.310406709089875" lon="8.231578264385462">
        <ele>1985.3900000000001</ele>
        <time>2025-07-06T11:43:09Z</time>
      </trkpt>
      <trkpt lat="46.310447780415416" lon="8.231696952134371">
        <ele>1985.6400000000001</ele>
        <time>2025-07-06T11:43:17Z</time>
      </trkpt>
      <trkpt lat="46.310487762093544" lon="8.231814801692963">
        <ele>1985.45</ele>
        <time>2025-07-06T11:43:25Z</time>
      </trkpt>
      <trkpt lat="46.310519278049469" lon="8.231943380087614">
        <ele>1985.3599999999999</ele>
        <time>2025-07-06T11:43:33Z</time>
      </trkpt>
      <trkpt lat="46.310551632195711" lon="8.232066929340363">
        <ele>1985.1300000000001</ele>
        <time>2025-07-06T11:43:41Z</time>
      </trkpt>
      <trkpt lat="46.310585327446461" lon="8.232189808040857">
        <ele>1985.1900000000001</ele>
        <time>2025-07-06T11:43:49Z</time>
      </trkpt>
      <trkpt lat="46.310622375458479" lon="8.232322074472904">
        <ele>1985.1300000000001</ele>
        <time>2025-07-06T11:43:57Z</time>
      </trkpt>
      <trkpt lat="46.310655232518911" lon="8.232450820505619">
        <ele>1984.9000000000001</ele>
        <time>2025-07-06T11:44:05Z</time>
      </trkpt>
      <trkpt lat="46.310678953304887" lon="8.232584847137332">
        <ele>1985.52</ele>
        <time>2025-07-06T11:44:13Z</time>
      </trkpt>
      <trkpt lat="46.310714324936271" lon="8.232715604826808">
        <ele>1985.48</ele>
        <time>2025-07-06T11:44:21Z</time>
      </trkpt>
      <trkpt lat="46.3107421528548" lon="8.232850385829806">
        <ele>1985.21</ele>
        <time>2025-07-06T11:44:29Z</time>
      </trkpt>
      <trkpt lat="46.31075824610889" lon="8.232976701110601">
        <ele>1985.5999999999999</ele>
        <time>2025-07-06T11:44:37Z</time>
      </trkpt>
      <trkpt lat="46.310779703781009" lon="8.233076697215438">
        <ele>1985.9400000000001</ele>
        <time>2025-07-06T11:44:43Z</time>
      </trkpt>
      <trkpt lat="46.310837874189019" lon="8.233160767704248">
        <ele>1986.0599999999999</ele>
        <time>2025-07-06T11:44:48Z</time>
      </trkpt>
      <trkpt lat="46.310863690450788" lon="8.233280796557665">
        <ele>1985.98</ele>
        <time>2025-07-06T11:44:55Z</time>
      </trkpt>
      <trkpt lat="46.31091708317399" lon="8.233400573953986">
        <ele>1984.95</ele>
        <time>2025-07-06T11:45:02Z</time>
      </trkpt>
      <trkpt lat="46.310955639928579" lon="8.233509538695216">
        <ele>1985.8299999999999</ele>
        <time>2025-07-06T11:45:09Z</time>
      </trkpt>
      <trkpt lat="46.310993023216724" lon="8.233631663024426">
        <ele>1985.6500000000001</ele>
        <time>2025-07-06T11:45:17Z</time>
      </trkpt>
      <trkpt lat="46.311056474223733" lon="8.233755379915237">
        <ele>1985.0599999999999</ele>
        <time>2025-07-06T11:45:25Z</time>
      </trkpt>
      <trkpt lat="46.311121098697186" lon="8.233844311907888">
        <ele>1984.9100000000001</ele>
        <time>2025-07-06T11:45:32Z</time>
      </trkpt>
      <trkpt lat="46.311198379844427" lon="8.233939111232758">
        <ele>1985.97</ele>
        <time>2025-07-06T11:45:39Z</time>
      </trkpt>
      <trkpt lat="46.311216065660119" lon="8.234060145914555">
        <ele>1985.48</ele>
        <time>2025-07-06T11:45:47Z</time>
      </trkpt>
      <trkpt lat="46.311254957690835" lon="8.234181012958288">
        <ele>1985.6600000000001</ele>
        <time>2025-07-06T11:45:55Z</time>
      </trkpt>
      <trkpt lat="46.311272475868464" lon="8.234306154772639">
        <ele>1985.5899999999999</ele>
        <time>2025-07-06T11:46:02Z</time>
      </trkpt>
      <trkpt lat="46.311316564679146" lon="8.234414365142584">
        <ele>1985.6300000000001</ele>
        <time>2025-07-06T11:46:09Z</time>
      </trkpt>
      <trkpt lat="46.311351433396339" lon="8.23452165350318">
        <ele>1985.0899999999999</ele>
        <time>2025-07-06T11:46:16Z</time>
      </trkpt>
      <trkpt lat="46.311408430337906" lon="8.234622571617365">
        <ele>1985.4000000000001</ele>
        <time>2025-07-06T11:46:22Z</time>
      </trkpt>
      <trkpt lat="46.311444723978639" lon="8.234737236052752">
        <ele>1985.2</ele>
        <time>2025-07-06T11:46:29Z</time>
      </trkpt>
      <trkpt lat="46.311490070074797" lon="8.234858522191644">
        <ele>1984.8399999999999</ele>
        <time>2025-07-06T11:46:37Z</time>
      </trkpt>
      <trkpt lat="46.311523513868451" lon="8.234984921291471">
        <ele>1984.6700000000001</ele>
        <time>2025-07-06T11:46:45Z</time>
      </trkpt>
      <trkpt lat="46.311554443091154" lon="8.235109308734536">
        <ele>1983.9000000000001</ele>
        <time>2025-07-06T11:46:52Z</time>
      </trkpt>
      <trkpt lat="46.311585372313857" lon="8.235248196870089">
        <ele>1984.1500000000001</ele>
        <time>2025-07-06T11:47:00Z</time>
      </trkpt>
      <trkpt lat="46.311615211889148" lon="8.235372416675091">
        <ele>1983.77</ele>
        <time>2025-07-06T11:47:07Z</time>
      </trkpt>
      <trkpt lat="46.311633149161935" lon="8.235502084717155">
        <ele>1984.4100000000001</ele>
        <time>2025-07-06T11:47:14Z</time>
      </trkpt>
      <trkpt lat="46.311660977080464" lon="8.235640218481422">
        <ele>1983.22</ele>
        <time>2025-07-06T11:47:22Z</time>
      </trkpt>
      <trkpt lat="46.311708921566606" lon="8.235766030848026">
        <ele>1983.1199999999999</ele>
        <time>2025-07-06T11:47:30Z</time>
      </trkpt>
      <trkpt lat="46.311744293197989" lon="8.235897123813629">
        <ele>1983.01</ele>
        <time>2025-07-06T11:47:38Z</time>
      </trkpt>
      <trkpt lat="46.311775892972946" lon="8.236022181808949">
        <ele>1983.1800000000001</ele>
        <time>2025-07-06T11:47:46Z</time>
      </trkpt>
      <trkpt lat="46.311807576566935" lon="8.236143970862031">
        <ele>1982.8499999999999</ele>
        <time>2025-07-06T11:47:54Z</time>
      </trkpt>
      <trkpt lat="46.311844624578953" lon="8.236264754086733">
        <ele>1982.8099999999999</ele>
        <time>2025-07-06T11:48:02Z</time>
      </trkpt>
      <trkpt lat="46.311861891299486" lon="8.236400038003922">
        <ele>1983.3199999999999</ele>
        <time>2025-07-06T11:48:11Z</time>
      </trkpt>
      <trkpt lat="46.311885276809335" lon="8.236531717702746">
        <ele>1982.79</ele>
        <time>2025-07-06T11:48:19Z</time>
      </trkpt>
      <trkpt lat="46.31191385909915" lon="8.236653842031956">
        <ele>1982.3599999999999</ele>
        <time>2025-07-06T11:48:27Z</time>
      </trkpt>
      <trkpt lat="46.311992397531867" lon="8.236736990511417">
        <ele>1982.1400000000001</ele>
        <time>2025-07-06T11:48:36Z</time>
      </trkpt>
      <trkpt lat="46.312074204906821" lon="8.236833969131112">
        <ele>1982.24</ele>
        <time>2025-07-06T11:48:45Z</time>
      </trkpt>
      <trkpt lat="46.312135895714164" lon="8.236946538090706">
        <ele>1982.1700000000001</ele>
        <time>2025-07-06T11:48:53Z</time>
      </trkpt>
      <trkpt lat="46.312180571258068" lon="8.237069500610232">
        <ele>1981.98</ele>
        <time>2025-07-06T11:49:01Z</time>
      </trkpt>
      <trkpt lat="46.312210997566581" lon="8.237190870568156">
        <ele>1981.26</ele>
        <time>2025-07-06T11:49:09Z</time>
      </trkpt>
      <trkpt lat="46.312257600948215" lon="8.237304277718067">
        <ele>1982.01</ele>
        <time>2025-07-06T11:49:16Z</time>
      </trkpt>
      <trkpt lat="46.312310323119164" lon="8.23742120526731">
        <ele>1982.46</ele>
        <time>2025-07-06T11:49:23Z</time>
      </trkpt>
      <trkpt lat="46.312355501577258" lon="8.23753603734076">
        <ele>1981.76</ele>
        <time>2025-07-06T11:49:30Z</time>
      </trkpt>
      <trkpt lat="46.312401266768575" lon="8.237647265195847">
        <ele>1981.47</ele>
        <time>2025-07-06T11:49:37Z</time>
      </trkpt>
      <trkpt lat="46.31244451738894" lon="8.237781124189496">
        <ele>1981.5999999999999</ele>
        <time>2025-07-06T11:49:45Z</time>
      </trkpt>
      <trkpt lat="46.312491707503796" lon="8.237901907414198">
        <ele>1981.6800000000001</ele>
        <time>2025-07-06T11:49:53Z</time>
      </trkpt>
      <trkpt lat="46.312552643939853" lon="8.238007267937064">
        <ele>1981.3699999999999</ele>
        <time>2025-07-06T11:50:01Z</time>
      </trkpt>
      <trkpt lat="46.312621375545859" lon="8.238101899623871">
        <ele>1980.3800000000001</ele>
        <time>2025-07-06T11:50:09Z</time>
      </trkpt>
      <trkpt lat="46.312698572874069" lon="8.238172391429544">
        <ele>1980.45</ele>
        <time>2025-07-06T11:50:18Z</time>
      </trkpt>
      <trkpt lat="46.31278800778091" lon="8.238196615129709">
        <ele>1979.9200000000001</ele>
        <time>2025-07-06T11:50:26Z</time>
      </trkpt>
      <trkpt lat="46.312879454344511" lon="8.238191418349743">
        <ele>1979.3599999999999</ele>
        <time>2025-07-06T11:50:34Z</time>
      </trkpt>
      <trkpt lat="46.312981294468045" lon="8.238204158842564">
        <ele>1979.46</ele>
        <time>2025-07-06T11:50:43Z</time>
      </trkpt>
      <trkpt lat="46.313074082136154" lon="8.23819468729198">
        <ele>1979.95</ele>
        <time>2025-07-06T11:50:52Z</time>
      </trkpt>
      <trkpt lat="46.313173240050673" lon="8.238185131922364">
        <ele>1979.9200000000001</ele>
        <time>2025-07-06T11:51:18Z</time>
      </trkpt>
      <trkpt lat="46.313268961384892" lon="8.238157304003835">
        <ele>1980.1500000000001</ele>
        <time>2025-07-06T11:51:27Z</time>
      </trkpt>
      <trkpt lat="46.313360827043653" lon="8.238133667036891">
        <ele>1980.4100000000001</ele>
        <time>2025-07-06T11:51:34Z</time>
      </trkpt>
      <trkpt lat="46.313454788178205" lon="8.23810282163322">
        <ele>1980.9400000000001</ele>
        <time>2025-07-06T11:51:42Z</time>
      </trkpt>
      <trkpt lat="46.313553107902408" lon="8.238061666488648">
        <ele>1981.25</ele>
        <time>2025-07-06T11:51:50Z</time>
      </trkpt>
      <trkpt lat="46.313654277473688" lon="8.238054122775793">
        <ele>1981.1600000000001</ele>
        <time>2025-07-06T11:51:58Z</time>
      </trkpt>
      <trkpt lat="46.313734659925103" lon="8.238127129152417">
        <ele>1980.99</ele>
        <time>2025-07-06T11:52:06Z</time>
      </trkpt>
      <trkpt lat="46.313831135630608" lon="8.238156884908676">
        <ele>1980.9400000000001</ele>
        <time>2025-07-06T11:52:14Z</time>
      </trkpt>
      <trkpt lat="46.313915541395545" lon="8.238210277631879">
        <ele>1981.0699999999999</ele>
        <time>2025-07-06T11:52:22Z</time>
      </trkpt>
      <trkpt lat="46.313984859734774" lon="8.238299041986466">
        <ele>1980.7</ele>
        <time>2025-07-06T11:52:30Z</time>
      </trkpt>
      <trkpt lat="46.314074210822582" lon="8.238364420831204">
        <ele>1979.5699999999999</ele>
        <time>2025-07-06T11:52:38Z</time>
      </trkpt>
      <trkpt lat="46.314143696799874" lon="8.238446479663253">
        <ele>1979.3699999999999</ele>
        <time>2025-07-06T11:52:47Z</time>
      </trkpt>
      <trkpt lat="46.314187031239271" lon="8.238561060279608">
        <ele>1978.3699999999999</ele>
        <time>2025-07-06T11:52:57Z</time>
      </trkpt>
      <trkpt lat="46.314182421192527" lon="8.238700032234192">
        <ele>1977.3099999999999</ele>
        <time>2025-07-06T11:53:07Z</time>
      </trkpt>
      <trkpt lat="46.31417722441256" lon="8.238836154341698">
        <ele>1976.53</ele>
        <time>2025-07-06T11:53:17Z</time>
      </trkpt>
      <trkpt lat="46.314201364293694" lon="8.238950232043862">
        <ele>1976.48</ele>
        <time>2025-07-06T11:53:26Z</time>
      </trkpt>
      <trkpt lat="46.314275125041604" lon="8.239037739112973">
        <ele>1975.8</ele>
        <time>2025-07-06T11:53:35Z</time>
      </trkpt>
      <trkpt lat="46.314366571605206" lon="8.239078558981419">
        <ele>1974.8900000000001</ele>
        <time>2025-07-06T11:53:43Z</time>
      </trkpt>
      <trkpt lat="46.314450390636921" lon="8.239143686369062">
        <ele>1974.98</ele>
        <time>2025-07-06T11:53:51Z</time>
      </trkpt>
      <trkpt lat="46.314515937119722" lon="8.239243179559708">
        <ele>1975.3699999999999</ele>
        <time>2025-07-06T11:54:00Z</time>
      </trkpt>
      <trkpt lat="46.314595062285662" lon="8.239340577274561">
        <ele>1975.8</ele>
        <time>2025-07-06T11:54:09Z</time>
      </trkpt>
      <trkpt lat="46.314637809991837" lon="8.239461192861199">
        <ele>1974.5899999999999</ele>
        <time>2025-07-06T11:54:18Z</time>
      </trkpt>
      <trkpt lat="46.314675947651267" lon="8.23958482593298">
        <ele>1974.75</ele>
        <time>2025-07-06T11:54:27Z</time>
      </trkpt>
      <trkpt lat="46.314707212150097" lon="8.23971432633698">
        <ele>1973.7</ele>
        <time>2025-07-06T11:54:37Z</time>
      </trkpt>
      <trkpt lat="46.314745433628559" lon="8.239832259714603">
        <ele>1972.6700000000001</ele>
        <time>2025-07-06T11:54:46Z</time>
      </trkpt>
      <trkpt lat="46.314793210476637" lon="8.23995279148221">
        <ele>1971.8699999999999</ele>
        <time>2025-07-06T11:54:55Z</time>
      </trkpt>
      <trkpt lat="46.314861187711358" lon="8.240066533908248">
        <ele>1971.05</ele>
        <time>2025-07-06T11:55:04Z</time>
      </trkpt>
      <trkpt lat="46.314912652596831" lon="8.240178013220429">
        <ele>1969.46</ele>
        <time>2025-07-06T11:55:13Z</time>
      </trkpt>
      <trkpt lat="46.31496244110167" lon="8.240298377349973">
        <ele>1968.4100000000001</ele>
        <time>2025-07-06T11:55:22Z</time>
      </trkpt>
      <trkpt lat="46.315032262355089" lon="8.240396780893207">
        <ele>1967.52</ele>
        <time>2025-07-06T11:55:31Z</time>
      </trkpt>
      <trkpt lat="46.315117925405502" lon="8.240459309890866">
        <ele>1966.8199999999999</ele>
        <time>2025-07-06T11:55:44Z</time>
      </trkpt>
      <trkpt lat="46.315186740830541" lon="8.240557294338942">
        <ele>1966.0799999999999</ele>
        <time>2025-07-06T11:55:52Z</time>
      </trkpt>
      <trkpt lat="46.315275002270937" lon="8.240610770881176">
        <ele>1965.25</ele>
        <time>2025-07-06T11:56:00Z</time>
      </trkpt>
      <trkpt lat="46.315365443006158" lon="8.240624768659473">
        <ele>1964.0899999999999</ele>
        <time>2025-07-06T11:56:17Z</time>
      </trkpt>
      <trkpt lat="46.315452363342047" lon="8.240663576871157">
        <ele>1963.6400000000001</ele>
        <time>2025-07-06T11:56:29Z</time>
      </trkpt>
      <trkpt lat="46.315522938966751" lon="8.240743037313223">
        <ele>1962.9300000000001</ele>
        <time>2025-07-06T11:56:39Z</time>
      </trkpt>
      <trkpt lat="46.3156049977988" lon="8.240821408107877">
        <ele>1961.6900000000001</ele>
        <time>2025-07-06T11:56:49Z</time>
      </trkpt>
      <trkpt lat="46.31568462587893" lon="8.240908747538924">
        <ele>1960.29</ele>
        <time>2025-07-06T11:57:00Z</time>
      </trkpt>
      <trkpt lat="46.315761907026172" lon="8.240999355912209">
        <ele>1959.3099999999999</ele>
        <time>2025-07-06T11:57:11Z</time>
      </trkpt>
      <trkpt lat="46.315811108797789" lon="8.241118378937244">
        <ele>1959.6199999999999</ele>
        <time>2025-07-06T11:57:20Z</time>
      </trkpt>
      <trkpt lat="46.315900878980756" lon="8.241167664527893">
        <ele>1958.98</ele>
        <time>2025-07-06T11:57:30Z</time>
      </trkpt>
      <trkpt lat="46.315953098237514" lon="8.241273947060108">
        <ele>1959.04</ele>
        <time>2025-07-06T11:57:39Z</time>
      </trkpt>
      <trkpt lat="46.315996684134007" lon="8.241397831588984">
        <ele>1959.9400000000001</ele>
        <time>2025-07-06T11:57:52Z</time>
      </trkpt>
      <trkpt lat="46.316053010523319" lon="8.241510568186641">
        <ele>1960.8800000000001</ele>
        <time>2025-07-06T11:58:03Z</time>
      </trkpt>
      <trkpt lat="46.316108666360378" lon="8.241613246500492">
        <ele>1961.23</ele>
        <time>2025-07-06T11:58:12Z</time>
      </trkpt>
      <trkpt lat="46.316156610846519" lon="8.241737969219685">
        <ele>1961.5699999999999</ele>
        <time>2025-07-06T11:58:21Z</time>
      </trkpt>
      <trkpt lat="46.316196341067553" lon="8.241864619776607">
        <ele>1962.28</ele>
        <time>2025-07-06T11:58:31Z</time>
      </trkpt>
      <trkpt lat="46.316220732405782" lon="8.241992946714163">
        <ele>1962.8099999999999</ele>
        <time>2025-07-06T11:58:40Z</time>
      </trkpt>
      <trkpt lat="46.316268425434828" lon="8.242105850949884">
        <ele>1962.9000000000001</ele>
        <time>2025-07-06T11:58:52Z</time>
      </trkpt>
      <trkpt lat="46.31628904491663" lon="8.242245744913817">
        <ele>1962.49</ele>
        <time>2025-07-06T11:59:01Z</time>
      </trkpt>
      <trkpt lat="46.316331876441836" lon="8.242374155670404">
        <ele>1961.99</ele>
        <time>2025-07-06T11:59:10Z</time>
      </trkpt>
      <trkpt lat="46.316345036029816" lon="8.242514636367559">
        <ele>1961.3499999999999</ele>
        <time>2025-07-06T11:59:18Z</time>
      </trkpt>
      <trkpt lat="46.316373450681567" lon="8.242640616372228">
        <ele>1961.3599999999999</ele>
        <time>2025-07-06T11:59:26Z</time>
      </trkpt>
      <trkpt lat="46.316402116790414" lon="8.242761315777898">
        <ele>1961.1300000000001</ele>
        <time>2025-07-06T11:59:34Z</time>
      </trkpt>
      <trkpt lat="46.316413683816791" lon="8.242892324924469">
        <ele>1960.6600000000001</ele>
        <time>2025-07-06T11:59:42Z</time>
      </trkpt>
      <trkpt lat="46.316435979679227" lon="8.243023753166199">
        <ele>1960.46</ele>
        <time>2025-07-06T11:59:51Z</time>
      </trkpt>
      <trkpt lat="46.316445870324969" lon="8.2431601267308">
        <ele>1960.4100000000001</ele>
        <time>2025-07-06T12:00:00Z</time>
      </trkpt>
      <trkpt lat="46.316426759585738" lon="8.24329549446702">
        <ele>1959.6700000000001</ele>
        <time>2025-07-06T12:00:09Z</time>
      </trkpt>
      <trkpt lat="46.316448552533984" lon="8.243420971557498">
        <ele>1959.3499999999999</ele>
        <time>2025-07-06T12:00:19Z</time>
      </trkpt>
      <trkpt lat="46.316479565575719" lon="8.24354468844831">
        <ele>1960.02</ele>
        <time>2025-07-06T12:00:27Z</time>
      </trkpt>
      <trkpt lat="46.316498424857855" lon="8.243680140003562">
        <ele>1959.6300000000001</ele>
        <time>2025-07-06T12:00:35Z</time>
      </trkpt>
      <trkpt lat="46.316539747640491" lon="8.243799163028598">
        <ele>1958.6900000000001</ele>
        <time>2025-07-06T12:00:45Z</time>
      </trkpt>
      <trkpt lat="46.316474955528975" lon="8.243875354528427">
        <ele>1956.78</ele>
        <time>2025-07-06T12:00:55Z</time>
      </trkpt>
      <trkpt lat="46.316527342423797" lon="8.244001166895032">
        <ele>1955.8399999999999</ele>
        <time>2025-07-06T12:01:04Z</time>
      </trkpt>
      <trkpt lat="46.316580232232809" lon="8.24411784298718">
        <ele>1955.4000000000001</ele>
        <time>2025-07-06T12:01:13Z</time>
      </trkpt>
      <trkpt lat="46.316668661311269" lon="8.24416620656848">
        <ele>1955.5899999999999</ele>
        <time>2025-07-06T12:01:22Z</time>
      </trkpt>
      <trkpt lat="46.316762873902917" lon="8.244175929576159">
        <ele>1954.9300000000001</ele>
        <time>2025-07-06T12:01:32Z</time>
      </trkpt>
      <trkpt lat="46.316855074837804" lon="8.244143156334758">
        <ele>1953.49</ele>
        <time>2025-07-06T12:01:41Z</time>
      </trkpt>
      <trkpt lat="46.316959848627448" lon="8.244174169376493">
        <ele>1952.79</ele>
        <time>2025-07-06T12:01:51Z</time>
      </trkpt>
      <trkpt lat="46.317051965743303" lon="8.244148436933756">
        <ele>1951.22</ele>
        <time>2025-07-06T12:02:02Z</time>
      </trkpt>
      <trkpt lat="46.317143412306905" lon="8.244098480790854">
        <ele>1949.8499999999999</ele>
        <time>2025-07-06T12:02:12Z</time>
      </trkpt>
      <trkpt lat="46.317234858870506" lon="8.244074089452624">
        <ele>1949.27</ele>
        <time>2025-07-06T12:02:21Z</time>
      </trkpt>
      <trkpt lat="46.3173249643296" lon="8.244077190756798">
        <ele>1947.72</ele>
        <time>2025-07-06T12:02:33Z</time>
      </trkpt>
      <trkpt lat="46.317406604066491" lon="8.244146341457963">
        <ele>1945.8499999999999</ele>
        <time>2025-07-06T12:02:48Z</time>
      </trkpt>
      <trkpt lat="46.317434851080179" lon="8.244251701980829">
        <ele>1943.9300000000001</ele>
        <time>2025-07-06T12:03:03Z</time>
      </trkpt>
      <trkpt lat="46.317487405613065" lon="8.244358152151108">
        <ele>1942.1199999999999</ele>
        <time>2025-07-06T12:03:16Z</time>
      </trkpt>
      <trkpt lat="46.317475670948625" lon="8.244487987831235">
        <ele>1939.72</ele>
        <time>2025-07-06T12:03:30Z</time>
      </trkpt>
      <trkpt lat="46.317491764202714" lon="8.244595946744084">
        <ele>1936.6800000000001</ele>
        <time>2025-07-06T12:03:45Z</time>
      </trkpt>
      <trkpt lat="46.317501151934266" lon="8.244723435491324">
        <ele>1934.1400000000001</ele>
        <time>2025-07-06T12:03:56Z</time>
      </trkpt>
      <trkpt lat="46.317529734224081" lon="8.244850169867277">
        <ele>1931.6500000000001</ele>
        <time>2025-07-06T12:04:07Z</time>
      </trkpt>
      <trkpt lat="46.317498134449124" lon="8.24499006383121">
        <ele>1928.6500000000001</ele>
        <time>2025-07-06T12:04:18Z</time>
      </trkpt>
      <trkpt lat="46.317517915740609" lon="8.245116714388132">
        <ele>1926.4100000000001</ele>
        <time>2025-07-06T12:04:29Z</time>
      </trkpt>
      <trkpt lat="46.317551610991359" lon="8.245225846767426">
        <ele>1924.1099999999999</ele>
        <time>2025-07-06T12:04:41Z</time>
      </trkpt>
      <trkpt lat="46.31755362264812" lon="8.245324417948723">
        <ele>1921.6199999999999</ele>
        <time>2025-07-06T12:04:52Z</time>
      </trkpt>
      <trkpt lat="46.317586898803711" lon="8.245412847027183">
        <ele>1918.9200000000001</ele>
        <time>2025-07-06T12:05:06Z</time>
      </trkpt>
      <trkpt lat="46.317576505243778" lon="8.245526505634189">
        <ele>1915.24</ele>
        <time>2025-07-06T12:05:23Z</time>
      </trkpt>
      <trkpt lat="46.317612044513226" lon="8.245638990774751">
        <ele>1911.6800000000001</ele>
        <time>2025-07-06T12:05:43Z</time>
      </trkpt>
      <trkpt lat="46.317635513842106" lon="8.245756421238184">
        <ele>1909.95</ele>
        <time>2025-07-06T12:05:55Z</time>
      </trkpt>
      <trkpt lat="46.317623108625412" lon="8.245889358222485">
        <ele>1907.6500000000001</ele>
        <time>2025-07-06T12:06:08Z</time>
      </trkpt>
      <trkpt lat="46.31758882664144" lon="8.246002933010459">
        <ele>1905.0899999999999</ele>
        <time>2025-07-06T12:06:20Z</time>
      </trkpt>
      <trkpt lat="46.317624617367983" lon="8.246119525283575">
        <ele>1902.24</ele>
        <time>2025-07-06T12:06:39Z</time>
      </trkpt>
      <trkpt lat="46.317622354254127" lon="8.246235279366374">
        <ele>1899.6199999999999</ele>
        <time>2025-07-06T12:06:55Z</time>
      </trkpt>
      <trkpt lat="46.317592849954963" lon="8.246330581605434">
        <ele>1897.6800000000001</ele>
        <time>2025-07-06T12:07:14Z</time>
      </trkpt>
      <trkpt lat="46.317686559632421" lon="8.246354050934315">
        <ele>1895.5</ele>
        <time>2025-07-06T12:07:29Z</time>
      </trkpt>
      <trkpt lat="46.317787142470479" lon="8.24636897072196">
        <ele>1892.1900000000001</ele>
        <time>2025-07-06T12:07:47Z</time>
      </trkpt>
      <trkpt lat="46.317862328141928" lon="8.246460584923625">
        <ele>1889.48</ele>
        <time>2025-07-06T12:08:04Z</time>
      </trkpt>
      <trkpt lat="46.317895436659455" lon="8.246579440310597">
        <ele>1887.6199999999999</ele>
        <time>2025-07-06T12:08:14Z</time>
      </trkpt>
      <trkpt lat="46.317872637882829" lon="8.24669343419373">
        <ele>1885.3199999999999</ele>
        <time>2025-07-06T12:08:26Z</time>
      </trkpt>
      <trkpt lat="46.317802648991346" lon="8.246752945706248">
        <ele>1882.4400000000001</ele>
        <time>2025-07-06T12:08:37Z</time>
      </trkpt>
      <trkpt lat="46.317745819687843" lon="8.246743474155664">
        <ele>1880.1900000000001</ele>
        <time>2025-07-06T12:08:50Z</time>
      </trkpt>
      <trkpt lat="46.317663174122572" lon="8.246808601543307">
        <ele>1878.1700000000001</ele>
        <time>2025-07-06T12:09:01Z</time>
      </trkpt>
      <trkpt lat="46.317571811378002" lon="8.246807176619768">
        <ele>1875.53</ele>
        <time>2025-07-06T12:09:14Z</time>
      </trkpt>
      <trkpt lat="46.317485477775335" lon="8.246765686199069">
        <ele>1872.47</ele>
        <time>2025-07-06T12:09:25Z</time>
      </trkpt>
      <trkpt lat="46.317389421164989" lon="8.24675252661109">
        <ele>1870.75</ele>
        <time>2025-07-06T12:09:36Z</time>
      </trkpt>
      <trkpt lat="46.317300070077181" lon="8.246757974848151">
        <ele>1868.25</ele>
        <time>2025-07-06T12:09:50Z</time>
      </trkpt>
      <trkpt lat="46.317208874970675" lon="8.246731907129288">
        <ele>1866.3099999999999</ele>
        <time>2025-07-06T12:10:01Z</time>
      </trkpt>
      <trkpt lat="46.31711239926517" lon="8.246746491640806">
        <ele>1865.1600000000001</ele>
        <time>2025-07-06T12:10:11Z</time>
      </trkpt>
      <trkpt lat="46.317037465050817" lon="8.2468038238585">
        <ele>1863.6500000000001</ele>
        <time>2025-07-06T12:10:21Z</time>
      </trkpt>
      <trkpt lat="46.316953394562006" lon="8.246851181611419">
        <ele>1862.01</ele>
        <time>2025-07-06T12:10:33Z</time>
      </trkpt>
      <trkpt lat="46.316868150606751" lon="8.246885715052486">
        <ele>1859.8199999999999</ele>
        <time>2025-07-06T12:10:44Z</time>
      </trkpt>
      <trkpt lat="46.316951047629118" lon="8.246940700337291">
        <ele>1857.4200000000001</ele>
        <time>2025-07-06T12:10:57Z</time>
      </trkpt>
      <trkpt lat="46.317030088976026" lon="8.246990405023098">
        <ele>1855.3199999999999</ele>
        <time>2025-07-06T12:11:11Z</time>
      </trkpt>
      <trkpt lat="46.317125223577023" lon="8.247029883787036">
        <ele>1853.02</ele>
        <time>2025-07-06T12:11:23Z</time>
      </trkpt>
      <trkpt lat="46.31716319359839" lon="8.247125186026096">
        <ele>1850.3299999999999</ele>
        <time>2025-07-06T12:11:39Z</time>
      </trkpt>
      <trkpt lat="46.317077865824103" lon="8.247165083885193">
        <ele>1848.3</ele>
        <time>2025-07-06T12:11:50Z</time>
      </trkpt>
      <trkpt lat="46.317083314061165" lon="8.247234988957644">
        <ele>1845.0899999999999</ele>
        <time>2025-07-06T12:12:09Z</time>
      </trkpt>
      <trkpt lat="46.317060431465507" lon="8.247327608987689">
        <ele>1842.4200000000001</ele>
        <time>2025-07-06T12:12:23Z</time>
      </trkpt>
      <trkpt lat="46.317136790603399" lon="8.24738091789186">
        <ele>1839.24</ele>
        <time>2025-07-06T12:12:41Z</time>
      </trkpt>
      <trkpt lat="46.317179286852479" lon="8.247486697509885">
        <ele>1835.72</ele>
        <time>2025-07-06T12:13:01Z</time>
      </trkpt>
      <trkpt lat="46.317261010408401" lon="8.247564984485507">
        <ele>1833.8599999999999</ele>
        <time>2025-07-06T12:13:12Z</time>
      </trkpt>
      <trkpt lat="46.317360084503889" lon="8.247592644765973">
        <ele>1833.53</ele>
        <time>2025-07-06T12:13:22Z</time>
      </trkpt>
      <trkpt lat="46.317415907979012" lon="8.247652072459459">
        <ele>1831.3399999999999</ele>
        <time>2025-07-06T12:13:34Z</time>
      </trkpt>
      <trkpt lat="46.317475754767656" lon="8.247706890106201">
        <ele>1829.27</ele>
        <time>2025-07-06T12:13:52Z</time>
      </trkpt>
      <trkpt lat="46.317586731165648" lon="8.24782214127481">
        <ele>1825.5799999999999</ele>
        <time>2025-07-06T12:14:06Z</time>
      </trkpt>
      <trkpt lat="46.317640375345945" lon="8.24791107326746">
        <ele>1822.1600000000001</ele>
        <time>2025-07-06T12:14:23Z</time>
      </trkpt>
      <trkpt lat="46.317685469985008" lon="8.248027749359608">
        <ele>1819.28</ele>
        <time>2025-07-06T12:14:41Z</time>
      </trkpt>
      <trkpt lat="46.317655965685844" lon="8.248159680515528">
        <ele>1816.0799999999999</ele>
        <time>2025-07-06T12:14:57Z</time>
      </trkpt>
      <trkpt lat="46.317612547427416" lon="8.248272081837058">
        <ele>1811.8900000000001</ele>
        <time>2025-07-06T12:15:13Z</time>
      </trkpt>
      <trkpt lat="46.317532751709223" lon="8.248338885605335">
        <ele>1809.0799999999999</ele>
        <time>2025-07-06T12:15:42Z</time>
      </trkpt>
      <trkpt lat="46.317451447248459" lon="8.248395463451743">
        <ele>1805.3399999999999</ele>
        <time>2025-07-06T12:17:19Z</time>
      </trkpt>
      <trkpt lat="46.317442897707224" lon="8.248527646064758">
        <ele>1802.22</ele>
        <time>2025-07-06T12:17:31Z</time>
      </trkpt>
      <trkpt lat="46.317378021776676" lon="8.248585313558579">
        <ele>1799.5599999999999</ele>
        <time>2025-07-06T12:17:43Z</time>
      </trkpt>
      <trkpt lat="46.31728439591825" lon="8.24858732521534">
        <ele>1797.27</ele>
        <time>2025-07-06T12:17:55Z</time>
      </trkpt>
      <trkpt lat="46.317236954346299" lon="8.248653374612331">
        <ele>1794.52</ele>
        <time>2025-07-06T12:18:08Z</time>
      </trkpt>
      <trkpt lat="46.317263608798385" lon="8.248780695721507">
        <ele>1791.01</ele>
        <time>2025-07-06T12:18:23Z</time>
      </trkpt>
      <trkpt lat="46.317250533029437" lon="8.248907430097461">
        <ele>1787.6500000000001</ele>
        <time>2025-07-06T12:18:44Z</time>
      </trkpt>
      <trkpt lat="46.317239888012409" lon="8.249040367081761">
        <ele>1784.97</ele>
        <time>2025-07-06T12:19:02Z</time>
      </trkpt>
      <trkpt lat="46.317214071750641" lon="8.249177914112806">
        <ele>1782.28</ele>
        <time>2025-07-06T12:19:14Z</time>
      </trkpt>
      <trkpt lat="46.317151878029108" lon="8.249287884682417">
        <ele>1778.3</ele>
        <time>2025-07-06T12:19:26Z</time>
      </trkpt>
      <trkpt lat="46.317103430628777" lon="8.249405818060041">
        <ele>1776.71</ele>
        <time>2025-07-06T12:19:35Z</time>
      </trkpt>
      <trkpt lat="46.317043248564005" lon="8.249509669840336">
        <ele>1775.98</ele>
        <time>2025-07-06T12:19:44Z</time>
      </trkpt>
      <trkpt lat="46.316999914124608" lon="8.249550238251686">
        <ele>1773.1400000000001</ele>
        <time>2025-07-06T12:20:04Z</time>
      </trkpt>
      <trkpt lat="46.317004272714257" lon="8.249398358166218">
        <ele>1769.54</ele>
        <time>2025-07-06T12:20:22Z</time>
      </trkpt>
      <trkpt lat="46.317032184451818" lon="8.249271791428328">
        <ele>1766.9300000000001</ele>
        <time>2025-07-06T12:20:34Z</time>
      </trkpt>
      <trkpt lat="46.317016761749983" lon="8.24914975091815">
        <ele>1763.8199999999999</ele>
        <time>2025-07-06T12:20:49Z</time>
      </trkpt>
      <trkpt lat="46.316941492259502" lon="8.249098202213645">
        <ele>1760.0899999999999</ele>
        <time>2025-07-06T12:21:09Z</time>
      </trkpt>
      <trkpt lat="46.316873095929623" lon="8.249193085357547">
        <ele>1757.01</ele>
        <time>2025-07-06T12:21:22Z</time>
      </trkpt>
      <trkpt lat="46.316831018775702" lon="8.249317221343517">
        <ele>1754.75</ele>
        <time>2025-07-06T12:21:34Z</time>
      </trkpt>
      <trkpt lat="46.316787181422114" lon="8.249423922970891">
        <ele>1752.4200000000001</ele>
        <time>2025-07-06T12:22:00Z</time>
      </trkpt>
      <trkpt lat="46.316740326583385" lon="8.249303894117475">
        <ele>1749.1400000000001</ele>
        <time>2025-07-06T12:22:10Z</time>
      </trkpt>
      <trkpt lat="46.316672097891569" lon="8.249217560514808">
        <ele>1746.0599999999999</ele>
        <time>2025-07-06T12:22:21Z</time>
      </trkpt>
      <trkpt lat="46.316622644662857" lon="8.24910968542099">
        <ele>1743.3</ele>
        <time>2025-07-06T12:22:33Z</time>
      </trkpt>
      <trkpt lat="46.316585596650839" lon="8.249202808365226">
        <ele>1741.53</ele>
        <time>2025-07-06T12:22:43Z</time>
      </trkpt>
      <trkpt lat="46.316578891128302" lon="8.249324932694435">
        <ele>1737.75</ele>
        <time>2025-07-06T12:23:02Z</time>
      </trkpt>
      <trkpt lat="46.316532958298922" lon="8.249438339844346">
        <ele>1735.4000000000001</ele>
        <time>2025-07-06T12:23:13Z</time>
      </trkpt>
      <trkpt lat="46.316515440121293" lon="8.249559123069048">
        <ele>1732.9400000000001</ele>
        <time>2025-07-06T12:23:30Z</time>
      </trkpt>
      <trkpt lat="46.316496664658189" lon="8.249688791111112">
        <ele>1729.3199999999999</ele>
        <time>2025-07-06T12:23:45Z</time>
      </trkpt>
      <trkpt lat="46.316463053226471" lon="8.249799348413944">
        <ele>1727.4300000000001</ele>
        <time>2025-07-06T12:23:58Z</time>
      </trkpt>
      <trkpt lat="46.31642147898674" lon="8.249913090839982">
        <ele>1724.96</ele>
        <time>2025-07-06T12:24:12Z</time>
      </trkpt>
      <trkpt lat="46.31637504324317" lon="8.250018199905753">
        <ele>1722.54</ele>
        <time>2025-07-06T12:24:28Z</time>
      </trkpt>
      <trkpt lat="46.31634721532464" lon="8.250145604833961">
        <ele>1720.6700000000001</ele>
        <time>2025-07-06T12:24:41Z</time>
      </trkpt>
      <trkpt lat="46.316313184797764" lon="8.250260017812252">
        <ele>1718.23</ele>
        <time>2025-07-06T12:24:52Z</time>
      </trkpt>
      <trkpt lat="46.316264988854527" lon="8.250366132706404">
        <ele>1715.3599999999999</ele>
        <time>2025-07-06T12:25:04Z</time>
      </trkpt>
      <trkpt lat="46.316203381866217" lon="8.250466967001557">
        <ele>1712.99</ele>
        <time>2025-07-06T12:25:16Z</time>
      </trkpt>
      <trkpt lat="46.316143618896604" lon="8.250574339181185">
        <ele>1710.8099999999999</ele>
        <time>2025-07-06T12:25:26Z</time>
      </trkpt>
      <trkpt lat="46.316083604469895" lon="8.250664947554469">
        <ele>1708.96</ele>
        <time>2025-07-06T12:25:36Z</time>
      </trkpt>
      <trkpt lat="46.316053429618478" lon="8.250731416046619">
        <ele>1707.47</ele>
        <time>2025-07-06T12:25:55Z</time>
      </trkpt>
      <trkpt lat="46.316083185374737" lon="8.250660505145788">
        <ele>1707.5599999999999</ele>
        <time>2025-07-06T12:26:15Z</time>
      </trkpt>
      <trkpt lat="46.316064409911633" lon="8.250727392733097">
        <ele>1706.5699999999999</ele>
        <time>2025-07-06T12:27:05Z</time>
      </trkpt>
      <trkpt lat="46.315998276695609" lon="8.25084482319653">
        <ele>1705.0899999999999</ele>
        <time>2025-07-06T12:27:13Z</time>
      </trkpt>
      <trkpt lat="46.315918061882257" lon="8.250937527045608">
        <ele>1703.51</ele>
        <time>2025-07-06T12:27:21Z</time>
      </trkpt>
      <trkpt lat="46.315836505964398" lon="8.251053029671311">
        <ele>1701.6700000000001</ele>
        <time>2025-07-06T12:27:31Z</time>
      </trkpt>
      <trkpt lat="46.315757632255554" lon="8.25113165192306">
        <ele>1700.78</ele>
        <time>2025-07-06T12:27:39Z</time>
      </trkpt>
      <trkpt lat="46.315676579251885" lon="8.251218572258949">
        <ele>1700.03</ele>
        <time>2025-07-06T12:27:48Z</time>
      </trkpt>
      <trkpt lat="46.315597705543041" lon="8.251286298036575">
        <ele>1698.8199999999999</ele>
        <time>2025-07-06T12:27:56Z</time>
      </trkpt>
      <trkpt lat="46.315513383597136" lon="8.251371122896671">
        <ele>1698.3499999999999</ele>
        <time>2025-07-06T12:28:05Z</time>
      </trkpt>
      <trkpt lat="46.31542956456542" lon="8.251458127051592">
        <ele>1696.77</ele>
        <time>2025-07-06T12:28:16Z</time>
      </trkpt>
      <trkpt lat="46.315333843231201" lon="8.251521661877632">
        <ele>1695.23</ele>
        <time>2025-07-06T12:28:25Z</time>
      </trkpt>
      <trkpt lat="46.315263686701655" lon="8.25162660330534">
        <ele>1692.6400000000001</ele>
        <time>2025-07-06T12:28:36Z</time>
      </trkpt>
      <trkpt lat="46.315198140218854" lon="8.251729784533382">
        <ele>1690.3900000000001</ele>
        <time>2025-07-06T12:28:46Z</time>
      </trkpt>
      <trkpt lat="46.315135275945067" lon="8.251853501424193">
        <ele>1688.3599999999999</ele>
        <time>2025-07-06T12:28:56Z</time>
      </trkpt>
      <trkpt lat="46.315113650634885" lon="8.251988282427192">
        <ele>1686.47</ele>
        <time>2025-07-06T12:29:06Z</time>
      </trkpt>
      <trkpt lat="46.315106190741062" lon="8.252120465040207">
        <ele>1682.04</ele>
        <time>2025-07-06T12:29:25Z</time>
      </trkpt>
      <trkpt lat="46.315146842971444" lon="8.2522486243397">
        <ele>1677.4300000000001</ele>
        <time>2025-07-06T12:29:42Z</time>
      </trkpt>
      <trkpt lat="46.315104346722364" lon="8.252372005954385">
        <ele>1673.78</ele>
        <time>2025-07-06T12:29:58Z</time>
      </trkpt>
      <trkpt lat="46.315037878230214" lon="8.252467392012477">
        <ele>1669.29</ele>
        <time>2025-07-06T12:30:15Z</time>
      </trkpt>
      <trkpt lat="46.314986748620868" lon="8.252594461664558">
        <ele>1665.98</ele>
        <time>2025-07-06T12:30:33Z</time>
      </trkpt>
      <trkpt lat="46.314891781657934" lon="8.252591695636511">
        <ele>1663.0799999999999</ele>
        <time>2025-07-06T12:30:43Z</time>
      </trkpt>
      <trkpt lat="46.314818356186152" lon="8.252690099179745">
        <ele>1661.6500000000001</ele>
        <time>2025-07-06T12:30:53Z</time>
      </trkpt>
      <trkpt lat="46.314803855493665" lon="8.252810714766383">
        <ele>1661.46</ele>
        <time>2025-07-06T12:31:10Z</time>
      </trkpt>
      <trkpt lat="46.314806118607521" lon="8.252941556274891">
        <ele>1661.4000000000001</ele>
        <time>2025-07-06T12:31:20Z</time>
      </trkpt>
      <trkpt lat="46.314820284023881" lon="8.2530636806041">
        <ele>1660.75</ele>
        <time>2025-07-06T12:31:30Z</time>
      </trkpt>
      <trkpt lat="46.31483637727797" lon="8.253190079703927">
        <ele>1660.03</ele>
        <time>2025-07-06T12:31:40Z</time>
      </trkpt>
      <trkpt lat="46.314851548522711" lon="8.253319663926959">
        <ele>1659.3</ele>
        <time>2025-07-06T12:31:50Z</time>
      </trkpt>
      <trkpt lat="46.314869485795498" lon="8.253397615626454">
        <ele>1658.3599999999999</ele>
        <time>2025-07-06T12:32:24Z</time>
      </trkpt>
      <trkpt lat="46.314921956509352" lon="8.253506664186716">
        <ele>1657.6700000000001</ele>
        <time>2025-07-06T12:32:34Z</time>
      </trkpt>
      <trkpt lat="46.314981635659933" lon="8.253602301701903">
        <ele>1657.5899999999999</ele>
        <time>2025-07-06T12:32:43Z</time>
      </trkpt>
      <trkpt lat="46.315045421943069" lon="8.253697101026774">
        <ele>1657.4200000000001</ele>
        <time>2025-07-06T12:32:56Z</time>
      </trkpt>
      <trkpt lat="46.315101329237223" lon="8.253802629187703">
        <ele>1656.98</ele>
        <time>2025-07-06T12:33:07Z</time>
      </trkpt>
      <trkpt lat="46.315136281773448" lon="8.253903798758984">
        <ele>1654.97</ele>
        <time>2025-07-06T12:37:52Z</time>
      </trkpt>
      <trkpt lat="46.315172910690308" lon="8.25403019785881">
        <ele>1654.8199999999999</ele>
        <time>2025-07-06T12:38:02Z</time>
      </trkpt>
      <trkpt lat="46.31518280133605" lon="8.254171935841441">
        <ele>1654.3800000000001</ele>
        <time>2025-07-06T12:38:11Z</time>
      </trkpt>
      <trkpt lat="46.31519160233438" lon="8.254315936937928">
        <ele>1653.53</ele>
        <time>2025-07-06T12:38:20Z</time>
      </trkpt>
      <trkpt lat="46.315209707245231" lon="8.254445856437087">
        <ele>1653.1099999999999</ele>
        <time>2025-07-06T12:38:28Z</time>
      </trkpt>
      <trkpt lat="46.315227728337049" lon="8.254575859755278">
        <ele>1653.1300000000001</ele>
        <time>2025-07-06T12:38:36Z</time>
      </trkpt>
      <trkpt lat="46.315239379182458" lon="8.254711059853435">
        <ele>1652.8800000000001</ele>
        <time>2025-07-06T12:38:45Z</time>
      </trkpt>
      <trkpt lat="46.315246922895312" lon="8.254846343770623">
        <ele>1652.6400000000001</ele>
        <time>2025-07-06T12:38:54Z</time>
      </trkpt>
      <trkpt lat="46.315256897360086" lon="8.25497911311686">
        <ele>1652.26</ele>
        <time>2025-07-06T12:39:03Z</time>
      </trkpt>
      <trkpt lat="46.315269386395812" lon="8.255116576328874">
        <ele>1651.51</ele>
        <time>2025-07-06T12:39:12Z</time>
      </trkpt>
      <trkpt lat="46.315286066383123" lon="8.255245238542557">
        <ele>1651.1199999999999</ele>
        <time>2025-07-06T12:39:20Z</time>
      </trkpt>
      <trkpt lat="46.315295873209834" lon="8.255390580743551">
        <ele>1650.8499999999999</ele>
        <time>2025-07-06T12:39:29Z</time>
      </trkpt>
      <trkpt lat="46.315296879038215" lon="8.255533995106816">
        <ele>1650.71</ele>
        <time>2025-07-06T12:39:38Z</time>
      </trkpt>
      <trkpt lat="46.315288245677948" lon="8.25566709972918">
        <ele>1650.6700000000001</ele>
        <time>2025-07-06T12:39:46Z</time>
      </trkpt>
      <trkpt lat="46.315269554033875" lon="8.255799449980259">
        <ele>1650.1300000000001</ele>
        <time>2025-07-06T12:39:54Z</time>
      </trkpt>
      <trkpt lat="46.315253125503659" lon="8.255928866565228">
        <ele>1649.8800000000001</ele>
        <time>2025-07-06T12:40:02Z</time>
      </trkpt>
      <trkpt lat="46.31524633616209" lon="8.256064569577575">
        <ele>1649.5799999999999</ele>
        <time>2025-07-06T12:40:10Z</time>
      </trkpt>
      <trkpt lat="46.315245917066932" lon="8.256197841838002">
        <ele>1648.9300000000001</ele>
        <time>2025-07-06T12:40:18Z</time>
      </trkpt>
      <trkpt lat="46.315251952037215" lon="8.256332874298096">
        <ele>1648.52</ele>
        <time>2025-07-06T12:40:26Z</time>
      </trkpt>
      <trkpt lat="46.315268883481622" lon="8.25646698474884">
        <ele>1648.26</ele>
        <time>2025-07-06T12:40:34Z</time>
      </trkpt>
      <trkpt lat="46.315292939543724" lon="8.256605789065361">
        <ele>1647.8</ele>
        <time>2025-07-06T12:40:42Z</time>
      </trkpt>
      <trkpt lat="46.3153235334903" lon="8.256731014698744">
        <ele>1647.6300000000001</ele>
        <time>2025-07-06T12:40:50Z</time>
      </trkpt>
      <trkpt lat="46.315350187942386" lon="8.256867891177535">
        <ele>1647.3299999999999</ele>
        <time>2025-07-06T12:40:58Z</time>
      </trkpt>
      <trkpt lat="46.315375249832869" lon="8.257009210065007">
        <ele>1647.0699999999999</ele>
        <time>2025-07-06T12:41:07Z</time>
      </trkpt>
      <trkpt lat="46.315386900678277" lon="8.257140638306737">
        <ele>1646.9400000000001</ele>
        <time>2025-07-06T12:41:15Z</time>
      </trkpt>
      <trkpt lat="46.315394779667258" lon="8.257279274985194">
        <ele>1646.77</ele>
        <time>2025-07-06T12:41:23Z</time>
      </trkpt>
      <trkpt lat="46.315397210419178" lon="8.257420426234603">
        <ele>1646.6600000000001</ele>
        <time>2025-07-06T12:41:31Z</time>
      </trkpt>
      <trkpt lat="46.31539830006659" lon="8.257566522806883">
        <ele>1646.6600000000001</ele>
        <time>2025-07-06T12:41:39Z</time>
      </trkpt>
      <trkpt lat="46.315386397764087" lon="8.257704237475991">
        <ele>1646.6800000000001</ele>
        <time>2025-07-06T12:41:47Z</time>
      </trkpt>
      <trkpt lat="46.315356474369764" lon="8.25783172622323">
        <ele>1646.45</ele>
        <time>2025-07-06T12:41:55Z</time>
      </trkpt>
      <trkpt lat="46.315315486863256" lon="8.257954940199852">
        <ele>1646.3099999999999</ele>
        <time>2025-07-06T12:42:03Z</time>
      </trkpt>
      <trkpt lat="46.315270056948066" lon="8.258077399805188">
        <ele>1646.04</ele>
        <time>2025-07-06T12:42:11Z</time>
      </trkpt>
      <trkpt lat="46.315212305635214" lon="8.258186280727387">
        <ele>1646.21</ele>
        <time>2025-07-06T12:42:19Z</time>
      </trkpt>
      <trkpt lat="46.315131084993482" lon="8.25826071202755">
        <ele>1647.55</ele>
        <time>2025-07-06T12:42:28Z</time>
      </trkpt>
      <trkpt lat="46.31505036726594" lon="8.258324414491653">
        <ele>1647.4000000000001</ele>
        <time>2025-07-06T12:42:37Z</time>
      </trkpt>
      <trkpt lat="46.314994124695659" lon="8.2584307808429">
        <ele>1646.71</ele>
        <time>2025-07-06T12:42:45Z</time>
      </trkpt>
      <trkpt lat="46.315017594024539" lon="8.258562963455916">
        <ele>1645.6099999999999</ele>
        <time>2025-07-06T12:42:53Z</time>
      </trkpt>
      <trkpt lat="46.315060425549746" lon="8.258686847984791">
        <ele>1645.4400000000001</ele>
        <time>2025-07-06T12:43:01Z</time>
      </trkpt>
      <trkpt lat="46.315083391964436" lon="8.258822048082948">
        <ele>1644.74</ele>
        <time>2025-07-06T12:43:09Z</time>
      </trkpt>
      <trkpt lat="46.315087834373116" lon="8.258966887369752">
        <ele>1644.3800000000001</ele>
        <time>2025-07-06T12:43:17Z</time>
      </trkpt>
      <trkpt lat="46.315069813281298" lon="8.259107703343034">
        <ele>1644.27</ele>
        <time>2025-07-06T12:43:25Z</time>
      </trkpt>
      <trkpt lat="46.315055899322033" lon="8.259246926754713">
        <ele>1644.0899999999999</ele>
        <time>2025-07-06T12:43:33Z</time>
      </trkpt>
      <trkpt lat="46.315047685056925" lon="8.259383887052536">
        <ele>1643.99</ele>
        <time>2025-07-06T12:43:41Z</time>
      </trkpt>
      <trkpt lat="46.315036872401834" lon="8.259515566751361">
        <ele>1643.98</ele>
        <time>2025-07-06T12:43:49Z</time>
      </trkpt>
      <trkpt lat="46.315044919028878" lon="8.259650599211454">
        <ele>1644.1800000000001</ele>
        <time>2025-07-06T12:43:57Z</time>
      </trkpt>
      <trkpt lat="46.315070567652583" lon="8.259777082130313">
        <ele>1644.53</ele>
        <time>2025-07-06T12:44:05Z</time>
      </trkpt>
      <trkpt lat="46.315095126628876" lon="8.259909516200423">
        <ele>1644.27</ele>
        <time>2025-07-06T12:44:13Z</time>
      </trkpt>
      <trkpt lat="46.315126558765769" lon="8.260043123736978">
        <ele>1644</ele>
        <time>2025-07-06T12:44:21Z</time>
      </trkpt>
      <trkpt lat="46.315149860456586" lon="8.260178994387388">
        <ele>1643.8599999999999</ele>
        <time>2025-07-06T12:44:29Z</time>
      </trkpt>
      <trkpt lat="46.315164277330041" lon="8.260318888351321">
        <ele>1643.48</ele>
        <time>2025-07-06T12:44:37Z</time>
      </trkpt>
      <trkpt lat="46.315154889598489" lon="8.26045953668654">
        <ele>1643.4100000000001</ele>
        <time>2025-07-06T12:44:45Z</time>
      </trkpt>
      <trkpt lat="46.315151117742062" lon="8.260591048747301">
        <ele>1643.0699999999999</ele>
        <time>2025-07-06T12:45:07Z</time>
      </trkpt>
      <trkpt lat="46.315137119963765" lon="8.260722644627094">
        <ele>1643.0599999999999</ele>
        <time>2025-07-06T12:45:16Z</time>
      </trkpt>
      <trkpt lat="46.315055480226874" lon="8.260778971016407">
        <ele>1642.6400000000001</ele>
        <time>2025-07-06T12:45:24Z</time>
      </trkpt>
      <trkpt lat="46.314961016178131" lon="8.260794058442116">
        <ele>1641.77</ele>
        <time>2025-07-06T12:45:32Z</time>
      </trkpt>
      <trkpt lat="46.314859678968787" lon="8.260784922167659">
        <ele>1640.8399999999999</ele>
        <time>2025-07-06T12:45:40Z</time>
      </trkpt>
      <trkpt lat="46.314762197434902" lon="8.260771594941616">
        <ele>1640.1800000000001</ele>
        <time>2025-07-06T12:45:48Z</time>
      </trkpt>
      <trkpt lat="46.314668990671635" lon="8.260792046785355">
        <ele>1639.6199999999999</ele>
        <time>2025-07-06T12:45:56Z</time>
      </trkpt>
      <trkpt lat="46.314584333449602" lon="8.260837811976671">
        <ele>1639.5</ele>
        <time>2025-07-06T12:46:04Z</time>
      </trkpt>
      <trkpt lat="46.314502274617553" lon="8.260910231620073">
        <ele>1638.3299999999999</ele>
        <time>2025-07-06T12:46:13Z</time>
      </trkpt>
      <trkpt lat="46.314424071460962" lon="8.260880056768656">
        <ele>1637</ele>
        <time>2025-07-06T12:46:22Z</time>
      </trkpt>
      <trkpt lat="46.31436925381422" lon="8.260786850005388">
        <ele>1635.27</ele>
        <time>2025-07-06T12:46:31Z</time>
      </trkpt>
      <trkpt lat="46.314313178882003" lon="8.260683249682188">
        <ele>1633.71</ele>
        <time>2025-07-06T12:46:40Z</time>
      </trkpt>
      <trkpt lat="46.314232712611556" lon="8.260615523904562">
        <ele>1633.0699999999999</ele>
        <time>2025-07-06T12:46:48Z</time>
      </trkpt>
      <trkpt lat="46.314141014590859" lon="8.260566741228104">
        <ele>1632.54</ele>
        <time>2025-07-06T12:46:56Z</time>
      </trkpt>
      <trkpt lat="46.314051495864987" lon="8.260530028492212">
        <ele>1632.25</ele>
        <time>2025-07-06T12:47:04Z</time>
      </trkpt>
      <trkpt lat="46.313949823379517" lon="8.260511672124267">
        <ele>1631.9000000000001</ele>
        <time>2025-07-06T12:47:15Z</time>
      </trkpt>
      <trkpt lat="46.31386105902493" lon="8.260466912761331">
        <ele>1632.3699999999999</ele>
        <time>2025-07-06T12:47:23Z</time>
      </trkpt>
      <trkpt lat="46.31376282311976" lon="8.260422321036458">
        <ele>1634.8699999999999</ele>
        <time>2025-07-06T12:47:37Z</time>
      </trkpt>
      <trkpt lat="46.313685374334455" lon="8.260369347408414">
        <ele>1634.6500000000001</ele>
        <time>2025-07-06T12:47:51Z</time>
      </trkpt>
      <trkpt lat="46.313599711284041" lon="8.260308997705579">
        <ele>1634.8399999999999</ele>
        <time>2025-07-06T12:47:59Z</time>
      </trkpt>
      <trkpt lat="46.313520586118102" lon="8.260238924995065">
        <ele>1634.24</ele>
        <time>2025-07-06T12:48:07Z</time>
      </trkpt>
      <trkpt lat="46.313417823985219" lon="8.260212438181043">
        <ele>1633.0599999999999</ele>
        <time>2025-07-06T12:48:15Z</time>
      </trkpt>
    </trkseg>
  </trk>

</gpx>